Wetterdaten: Montag, 10.10.2022
Datum Zeit Temp. Aussen Temp. o. S. Temp +5cm Feuchte Auss Luftdruck Regen Sonnenschein Regendauer Solar Windben Empfang
10.10.2022 00:00 10,2 C 9,4 C 6,1 C 80 % 1016,9 hPa 0,0 l/m 0 min 0 min 0 W/m 6,4 km/h (2 Bft) 97,87 %
10.10.2022 00:02 10,2 C 9,4 C 6,1 C 80 % 1016,9 hPa 0,0 l/m 0 min 0 min 0 W/m 12,9 km/h (3 Bft) 100,00 %
10.10.2022 00:04 10,2 C 9,4 C 6,1 C 80 % 1016,9 hPa 0,0 l/m 0 min 0 min 0 W/m 6,4 km/h (2 Bft) 97,87 %
10.10.2022 00:08 10,1 C 9,4 C 6,1 C 80 % 1016,8 hPa 0,0 l/m 0 min 0 min 0 W/m 3,2 km/h (1 Bft) 95,83 %
10.10.2022 00:10 10,1 C 9,4 C 6,1 C 80 % 1016,8 hPa 0,0 l/m 0 min 0 min 0 W/m 6,4 km/h (2 Bft) 95,74 %
10.10.2022 00:12 10,1 C 9,4 C 6,1 C 80 % 1016,8 hPa 0,0 l/m 0 min 0 min 0 W/m 3,2 km/h (1 Bft) 93,62 %
10.10.2022 00:14 10,1 C 9,4 C 6,1 C 80 % 1016,8 hPa 0,0 l/m 0 min 0 min 0 W/m 6,4 km/h (2 Bft) 95,65 %
10.10.2022 00:16 10,1 C 9,4 C 5,6 C 80 % 1016,9 hPa 0,0 l/m 0 min 0 min 0 W/m 6,4 km/h (2 Bft) 95,74 %
10.10.2022 00:18 10,1 C 9,4 C 5,6 C 80 % 1016,9 hPa 0,0 l/m 0 min 0 min 0 W/m 6,4 km/h (2 Bft) 95,74 %
10.10.2022 00:20 10,1 C 8,9 C 5,6 C 80 % 1016,8 hPa 0,0 l/m 0 min 0 min 0 W/m 3,2 km/h (1 Bft) 93,62 %
10.10.2022 00:22 10,0 C 8,9 C 5,6 C 80 % 1016,8 hPa 0,0 l/m 0 min 0 min 0 W/m 3,2 km/h (1 Bft) 95,74 %
10.10.2022 00:24 10,0 C 8,9 C 5,6 C 80 % 1016,8 hPa 0,0 l/m 0 min 0 min 0 W/m 6,4 km/h (2 Bft) 93,62 %
10.10.2022 00:26 10,0 C 8,9 C 5,6 C 80 % 1016,8 hPa 0,0 l/m 0 min 0 min 0 W/m 6,4 km/h (2 Bft) 95,65 %
10.10.2022 00:28 9,9 C 8,9 C 5,6 C 80 % 1016,8 hPa 0,0 l/m 0 min 0 min 0 W/m 6,4 km/h (2 Bft) 95,74 %
10.10.2022 00:30 9,9 C 8,9 C 5,6 C 80 % 1016,7 hPa 0,0 l/m 0 min 0 min 0 W/m 6,4 km/h (2 Bft) 93,62 %
10.10.2022 00:32 9,9 C 8,9 C 5,6 C 80 % 1016,7 hPa 0,0 l/m 0 min 0 min 0 W/m 3,2 km/h (1 Bft) 95,74 %
10.10.2022 00:34 9,9 C 8,9 C 5,6 C 80 % 1016,7 hPa 0,0 l/m 0 min 0 min 0 W/m 6,4 km/h (2 Bft) 95,74 %
10.10.2022 00:36 9,9 C 8,9 C 5,6 C 80 % 1016,7 hPa 0,0 l/m 0 min 0 min 0 W/m 3,2 km/h (1 Bft) 93,62 %
10.10.2022 00:38 9,8 C 8,9 C 5,6 C 80 % 1016,6 hPa 0,0 l/m 0 min 0 min 0 W/m 6,4 km/h (2 Bft) 97,83 %
10.10.2022 00:40 9,8 C 8,9 C 5,6 C 80 % 1016,7 hPa 0,0 l/m 0 min 0 min 0 W/m 6,4 km/h (2 Bft) 97,87 %
10.10.2022 00:42 9,8 C 8,9 C 5,6 C 80 % 1016,7 hPa 0,0 l/m 0 min 0 min 0 W/m 3,2 km/h (1 Bft) 95,74 %
10.10.2022 00:44 9,8 C 8,9 C 5,6 C 80 % 1016,6 hPa 0,0 l/m 0 min 0 min 0 W/m 3,2 km/h (1 Bft) 97,87 %
10.10.2022 00:46 9,8 C 8,9 C 5,6 C 81 % 1016,7 hPa 0,0 l/m 0 min 0 min 0 W/m 3,2 km/h (1 Bft) 95,74 %
10.10.2022 00:48 9,8 C 8,9 C 5,6 C 81 % 1016,6 hPa 0,0 l/m 0 min 0 min 0 W/m 3,2 km/h (1 Bft) 95,74 %
10.10.2022 00:50 9,7 C 8,9 C 5,6 C 81 % 1016,5 hPa 0,0 l/m 0 min 0 min 0 W/m 6,4 km/h (2 Bft) 97,83 %
10.10.2022 00:52 9,7 C 8,9 C 5,6 C 81 % 1016,5 hPa 0,0 l/m 0 min 0 min 0 W/m 6,4 km/h (2 Bft) 97,87 %
10.10.2022 00:54 9,7 C 8,3 C 5,6 C 81 % 1016,5 hPa 0,0 l/m 0 min 0 min 0 W/m 3,2 km/h (1 Bft) 95,74 %
10.10.2022 00:56 9,7 C 8,3 C 5,6 C 81 % 1016,5 hPa 0,0 l/m 0 min 0 min 0 W/m 12,9 km/h (3 Bft) 95,74 %
10.10.2022 00:58 9,6 C 8,3 C 5,6 C 81 % 1016,5 hPa 0,0 l/m 0 min 0 min 0 W/m 3,2 km/h (1 Bft) 97,87 %
10.10.2022 01:00 9,6 C 8,3 C 5,6 C 81 % 1016,5 hPa 0,0 l/m 0 min 0 min 0 W/m 6,4 km/h (2 Bft) 97,83 %
10.10.2022 01:02 9,6 C 8,3 C 5,6 C 81 % 1016,5 hPa 0,0 l/m 0 min 0 min 0 W/m 6,4 km/h (2 Bft) 95,74 %
10.10.2022 01:04 9,6 C 8,3 C 5,6 C 82 % 1016,5 hPa 0,0 l/m 0 min 0 min 0 W/m 6,4 km/h (2 Bft) 100,00 %
10.10.2022 01:06 9,5 C 8,3 C 5,6 C 82 % 1016,4 hPa 0,0 l/m 0 min 0 min 0 W/m 3,2 km/h (1 Bft) 97,87 %
10.10.2022 01:08 9,5 C 8,3 C 5,0 C 82 % 1016,4 hPa 0,0 l/m 0 min 0 min 0 W/m 6,4 km/h (2 Bft) 100,00 %
10.10.2022 01:10 9,4 C 8,3 C 5,0 C 82 % 1016,4 hPa 0,0 l/m 0 min 0 min 0 W/m 9,7 km/h (2 Bft) 97,87 %
10.10.2022 01:12 9,4 C 8,3 C 5,0 C 82 % 1016,4 hPa 0,0 l/m 0 min 0 min 0 W/m 6,4 km/h (2 Bft) 100,00 %
10.10.2022 01:14 9,4 C 8,3 C 5,0 C 82 % 1016,4 hPa 0,0 l/m 0 min 0 min 0 W/m 3,2 km/h (1 Bft) 100,00 %
10.10.2022 01:16 9,4 C 8,3 C 5,0 C 82 % 1016,4 hPa 0,0 l/m 0 min 0 min 0 W/m 6,4 km/h (2 Bft) 95,74 %
10.10.2022 01:18 9,4 C 8,3 C 5,0 C 82 % 1016,4 hPa 0,0 l/m 0 min 0 min 0 W/m 6,4 km/h (2 Bft) 100,00 %
10.10.2022 01:20 9,3 C 8,3 C 5,0 C 82 % 1016,3 hPa 0,0 l/m 0 min 0 min 0 W/m 6,4 km/h (2 Bft) 97,87 %
10.10.2022 01:22 9,3 C 8,3 C 5,0 C 82 % 1016,3 hPa 0,0 l/m 0 min 0 min 0 W/m 6,4 km/h (2 Bft) 97,87 %
10.10.2022 01:24 9,3 C 8,3 C 5,0 C 82 % 1016,3 hPa 0,0 l/m 0 min 0 min 0 W/m 3,2 km/h (1 Bft) 97,83 %
10.10.2022 01:26 9,3 C 8,3 C 5,0 C 82 % 1016,3 hPa 0,0 l/m 0 min 0 min 0 W/m 6,4 km/h (2 Bft) 97,87 %
10.10.2022 01:28 9,3 C 8,3 C 5,0 C 83 % 1016,3 hPa 0,0 l/m 0 min 0 min 0 W/m 6,4 km/h (2 Bft) 97,87 %
10.10.2022 01:30 9,2 C 8,3 C 5,0 C 83 % 1016,3 hPa 0,0 l/m 0 min 0 min 0 W/m 6,4 km/h (2 Bft) 97,87 %
10.10.2022 01:32 9,2 C 8,3 C 5,0 C 82 % 1016,2 hPa 0,0 l/m 0 min 0 min 0 W/m 6,4 km/h (2 Bft) 97,87 %
10.10.2022 01:34 9,2 C 8,3 C 5,0 C 83 % 1016,2 hPa 0,0 l/m 0 min 0 min 0 W/m 3,2 km/h (1 Bft) 97,87 %
10.10.2022 01:36 9,2 C 8,3 C 5,0 C 83 % 1016,2 hPa 0,0 l/m 0 min 0 min 0 W/m 3,2 km/h (1 Bft) 97,87 %
10.10.2022 01:38 9,2 C 8,3 C 5,0 C 83 % 1016,2 hPa 0,0 l/m 0 min 0 min 0 W/m 6,4 km/h (2 Bft) 97,83 %
10.10.2022 01:40 9,2 C 8,3 C 5,0 C 83 % 1016,2 hPa 0,0 l/m 0 min 0 min 0 W/m 12,9 km/h (3 Bft) 97,87 %
10.10.2022 01:42 9,2 C 8,3 C 5,0 C 83 % 1016,2 hPa 0,0 l/m 0 min 0 min 0 W/m 6,4 km/h (2 Bft) 93,62 %
10.10.2022 01:44 9,2 C 8,3 C 5,0 C 83 % 1016,2 hPa 0,0 l/m 0 min 0 min 0 W/m 12,9 km/h (3 Bft) 97,87 %
10.10.2022 01:46 9,1 C 8,3 C 5,0 C 83 % 1016,1 hPa 0,0 l/m 0 min 0 min 0 W/m 6,4 km/h (2 Bft) 97,87 %
10.10.2022 01:48 9,1 C 8,3 C 5,0 C 83 % 1016,1 hPa 0,0 l/m 0 min 0 min 0 W/m 6,4 km/h (2 Bft) 95,65 %
10.10.2022 01:50 9,1 C 8,3 C 5,0 C 83 % 1016,2 hPa 0,0 l/m 0 min 0 min 0 W/m 6,4 km/h (2 Bft) 97,87 %
10.10.2022 01:52 9,1 C 8,3 C 5,0 C 83 % 1016,1 hPa 0,0 l/m 0 min 0 min 0 W/m 6,4 km/h (2 Bft) 95,74 %
10.10.2022 01:54 9,1 C 8,3 C 5,0 C 83 % 1016,1 hPa 0,0 l/m 0 min 0 min 0 W/m 12,9 km/h (3 Bft) 95,74 %
10.10.2022 01:56 9,1 C 8,3 C 5,0 C 83 % 1016,1 hPa 0,0 l/m 0 min 0 min 0 W/m 12,9 km/h (3 Bft) 93,62 %
10.10.2022 01:58 9,1 C 8,3 C 5,0 C 84 % 1016,2 hPa 0,0 l/m 0 min 0 min 0 W/m 6,4 km/h (2 Bft) 95,74 %
10.10.2022 02:00 9,1 C 8,3 C 5,0 C 84 % 1016,1 hPa 0,0 l/m 0 min 0 min 0 W/m 6,4 km/h (2 Bft) 91,30 %
10.10.2022 02:02 9,1 C 8,3 C 5,0 C 84 % 1016,1 hPa 0,0 l/m 0 min 0 min 0 W/m 12,9 km/h (3 Bft) 97,87 %
10.10.2022 02:04 9,1 C 8,3 C 5,0 C 84 % 1016,1 hPa 0,0 l/m 0 min 0 min 0 W/m 12,9 km/h (3 Bft) 97,87 %
10.10.2022 02:06 9,1 C 8,3 C 5,0 C 84 % 1016,1 hPa 0,0 l/m 0 min 0 min 0 W/m 6,4 km/h (2 Bft) 97,87 %
10.10.2022 02:08 9,1 C 8,3 C 5,0 C 84 % 1016,1 hPa 0,0 l/m 0 min 0 min 0 W/m 12,9 km/h (3 Bft) 97,87 %
10.10.2022 02:10 9,1 C 8,3 C 5,0 C 84 % 1016,1 hPa 0,0 l/m 0 min 0 min 0 W/m 6,4 km/h (2 Bft) 97,87 %
10.10.2022 02:12 9,1 C 8,3 C 5,0 C 84 % 1016,1 hPa 0,0 l/m 0 min 0 min 0 W/m 12,9 km/h (3 Bft) 97,87 %
10.10.2022 02:14 9,1 C 8,3 C 5,0 C 84 % 1016,1 hPa 0,0 l/m 0 min 0 min 0 W/m 12,9 km/h (3 Bft) 97,83 %
10.10.2022 02:16 9,1 C 8,3 C 5,0 C 84 % 1016,0 hPa 0,0 l/m 0 min 0 min 0 W/m 6,4 km/h (2 Bft) 97,87 %
10.10.2022 02:18 9,1 C 8,3 C 5,0 C 84 % 1016,0 hPa 0,0 l/m 0 min 0 min 0 W/m 6,4 km/h (2 Bft) 97,87 %
10.10.2022 02:20 9,1 C 8,3 C 5,0 C 84 % 1016,0 hPa 0,0 l/m 0 min 0 min 0 W/m 9,7 km/h (2 Bft) 100,00 %
10.10.2022 02:22 9,0 C 8,3 C 5,0 C 84 % 1016,1 hPa 0,0 l/m 0 min 0 min 0 W/m 6,4 km/h (2 Bft) 100,00 %
10.10.2022 02:24 9,1 C 8,3 C 5,0 C 84 % 1016,1 hPa 0,0 l/m 0 min 0 min 0 W/m 12,9 km/h (3 Bft) 100,00 %
10.10.2022 02:26 9,0 C 8,3 C 5,0 C 84 % 1016,0 hPa 0,0 l/m 0 min 0 min 0 W/m 12,9 km/h (3 Bft) 100,00 %
10.10.2022 02:28 9,0 C 8,3 C 5,0 C 84 % 1016,0 hPa 0,0 l/m 0 min 0 min 0 W/m 9,7 km/h (2 Bft) 100,00 %
10.10.2022 02:30 9,0 C 8,3 C 5,0 C 84 % 1016,0 hPa 0,0 l/m 0 min 0 min 0 W/m 12,9 km/h (3 Bft) 97,87 %
10.10.2022 02:32 9,0 C 8,3 C 5,0 C 84 % 1016,0 hPa 0,0 l/m 0 min 0 min 0 W/m 6,4 km/h (2 Bft) 100,00 %
10.10.2022 02:34 9,0 C 8,3 C 5,0 C 84 % 1016,1 hPa 0,0 l/m 0 min 0 min 0 W/m 12,9 km/h (3 Bft) 97,87 %
10.10.2022 02:36 9,0 C 8,3 C 5,0 C 84 % 1016,1 hPa 0,0 l/m 0 min 0 min 0 W/m 6,4 km/h (2 Bft) 95,65 %
10.10.2022 02:38 9,0 C 8,3 C 5,0 C 84 % 1016,1 hPa 0,0 l/m 0 min 0 min 0 W/m 16,1 km/h (3 Bft) 100,00 %
10.10.2022 02:40 9,0 C 8,3 C 5,0 C 84 % 1016,1 hPa 0,0 l/m 0 min 0 min 0 W/m 6,4 km/h (2 Bft) 97,87 %
10.10.2022 02:42 9,0 C 8,3 C 5,0 C 84 % 1016,0 hPa 0,0 l/m 0 min 0 min 0 W/m 6,4 km/h (2 Bft) 100,00 %
10.10.2022 02:44 8,9 C 8,3 C 5,0 C 84 % 1016,0 hPa 0,0 l/m 0 min 0 min 0 W/m 6,4 km/h (2 Bft) 100,00 %
10.10.2022 02:46 8,9 C 8,3 C 5,0 C 84 % 1015,9 hPa 0,0 l/m 0 min 0 min 0 W/m 6,4 km/h (2 Bft) 100,00 %
10.10.2022 02:48 8,9 C 7,8 C 5,0 C 84 % 1016,0 hPa 0,0 l/m 0 min 0 min 0 W/m 6,4 km/h (2 Bft) 100,00 %
10.10.2022 02:50 8,9 C 7,8 C 5,0 C 84 % 1015,9 hPa 0,0 l/m 0 min 0 min 0 W/m 9,7 km/h (2 Bft) 100,00 %
10.10.2022 02:52 8,9 C 7,8 C 5,0 C 84 % 1015,9 hPa 0,0 l/m 0 min 0 min 0 W/m 6,4 km/h (2 Bft) 100,00 %
10.10.2022 02:54 8,9 C 7,8 C 5,0 C 84 % 1015,9 hPa 0,0 l/m 0 min 0 min 0 W/m 6,4 km/h (2 Bft) 100,00 %
10.10.2022 02:56 8,8 C 7,8 C 5,0 C 84 % 1015,9 hPa 0,0 l/m 0 min 0 min 0 W/m 12,9 km/h (3 Bft) 100,00 %
10.10.2022 02:58 8,8 C 7,8 C 5,0 C 84 % 1015,9 hPa 0,0 l/m 0 min 0 min 0 W/m 9,7 km/h (2 Bft) 100,00 %
10.10.2022 03:00 8,8 C 7,8 C 5,0 C 85 % 1015,9 hPa 0,0 l/m 0 min 0 min 0 W/m 6,4 km/h (2 Bft) 100,00 %
10.10.2022 03:02 8,8 C 7,8 C 5,0 C 85 % 1015,8 hPa 0,0 l/m 0 min 0 min 0 W/m 16,1 km/h (3 Bft) 100,00 %
10.10.2022 03:04 8,8 C 7,8 C 5,0 C 85 % 1015,8 hPa 0,0 l/m 0 min 0 min 0 W/m 12,9 km/h (3 Bft) 100,00 %
10.10.2022 03:06 8,8 C 7,8 C 5,0 C 85 % 1015,8 hPa 0,0 l/m 0 min 0 min 0 W/m 9,7 km/h (2 Bft) 97,87 %
10.10.2022 03:08 8,8 C 7,8 C 5,0 C 85 % 1015,8 hPa 0,0 l/m 0 min 0 min 0 W/m 6,4 km/h (2 Bft) 100,00 %
10.10.2022 03:10 8,8 C 7,8 C 5,0 C 85 % 1015,7 hPa 0,0 l/m 0 min 0 min 0 W/m 12,9 km/h (3 Bft) 100,00 %
10.10.2022 03:12 8,8 C 7,8 C 5,0 C 85 % 1015,7 hPa 0,0 l/m 0 min 0 min 0 W/m 12,9 km/h (3 Bft) 100,00 %
10.10.2022 03:14 8,7 C 7,8 C 4,4 C 85 % 1015,7 hPa 0,0 l/m 0 min 0 min 0 W/m 6,4 km/h (2 Bft) 100,00 %
10.10.2022 03:16 8,7 C 7,8 C 4,4 C 85 % 1015,7 hPa 0,0 l/m 0 min 0 min 0 W/m 12,9 km/h (3 Bft) 100,00 %
10.10.2022 03:18 8,7 C 7,8 C 4,4 C 85 % 1015,7 hPa 0,0 l/m 0 min 0 min 0 W/m 6,4 km/h (2 Bft) 100,00 %
10.10.2022 03:20 8,7 C 7,8 C 4,4 C 85 % 1015,7 hPa 0,0 l/m 0 min 0 min 0 W/m 12,9 km/h (3 Bft) 100,00 %
10.10.2022 03:22 8,7 C 7,8 C 4,4 C 85 % 1015,6 hPa 0,0 l/m 0 min 0 min 0 W/m 6,4 km/h (2 Bft) 100,00 %
10.10.2022 03:24 8,7 C 7,8 C 4,4 C 85 % 1015,7 hPa 0,0 l/m 0 min 0 min 0 W/m 6,4 km/h (2 Bft) 100,00 %
10.10.2022 03:26 8,6 C 7,8 C 4,4 C 85 % 1015,7 hPa 0,0 l/m 0 min 0 min 0 W/m 6,4 km/h (2 Bft) 97,87 %
10.10.2022 03:28 8,6 C 7,8 C 4,4 C 85 % 1015,6 hPa 0,0 l/m 0 min 0 min 0 W/m 6,4 km/h (2 Bft) 95,74 %
10.10.2022 03:30 8,6 C 7,8 C 4,4 C 85 % 1015,6 hPa 0,0 l/m 0 min 0 min 0 W/m 6,4 km/h (2 Bft) 95,74 %
10.10.2022 03:32 8,6 C 7,8 C 4,4 C 85 % 1015,6 hPa 0,0 l/m 0 min 0 min 0 W/m 6,4 km/h (2 Bft) 95,74 %
10.10.2022 03:34 8,6 C 7,8 C 4,4 C 85 % 1015,6 hPa 0,0 l/m 0 min 0 min 0 W/m 6,4 km/h (2 Bft) 97,87 %
10.10.2022 03:36 8,6 C 7,8 C 4,4 C 86 % 1015,6 hPa 0,0 l/m 0 min 0 min 0 W/m 6,4 km/h (2 Bft) 95,65 %
10.10.2022 03:38 8,5 C 7,8 C 4,4 C 86 % 1015,5 hPa 0,0 l/m 0 min 0 min 0 W/m 3,2 km/h (1 Bft) 93,62 %
10.10.2022 03:40 8,5 C 7,8 C 4,4 C 86 % 1015,5 hPa 0,0 l/m 0 min 0 min 0 W/m 12,9 km/h (3 Bft) 95,74 %
10.10.2022 03:42 8,5 C 7,8 C 4,4 C 86 % 1015,5 hPa 0,0 l/m 0 min 0 min 0 W/m 6,4 km/h (2 Bft) 93,62 %
10.10.2022 03:44 8,5 C 7,8 C 4,4 C 86 % 1015,5 hPa 0,0 l/m 0 min 0 min 0 W/m 6,4 km/h (2 Bft) 93,62 %
10.10.2022 03:46 8,5 C 7,8 C 4,4 C 86 % 1015,4 hPa 0,0 l/m 0 min 0 min 0 W/m 12,9 km/h (3 Bft) 93,62 %
10.10.2022 03:48 8,5 C 7,8 C 4,4 C 86 % 1015,4 hPa 0,0 l/m 0 min 0 min 0 W/m 12,9 km/h (3 Bft) 93,48 %
10.10.2022 03:50 8,5 C 7,8 C 4,4 C 86 % 1015,4 hPa 0,0 l/m 0 min 0 min 0 W/m 6,4 km/h (2 Bft) 91,49 %
10.10.2022 03:52 8,5 C 7,8 C 4,4 C 86 % 1015,4 hPa 0,0 l/m 0 min 0 min 0 W/m 3,2 km/h (1 Bft) 93,62 %
10.10.2022 03:54 8,4 C 7,8 C 4,4 C 86 % 1015,4 hPa 0,0 l/m 0 min 0 min 0 W/m 6,4 km/h (2 Bft) 89,36 %
10.10.2022 03:56 8,4 C 7,8 C 4,4 C 86 % 1015,4 hPa 0,0 l/m 0 min 0 min 0 W/m 12,9 km/h (3 Bft) 93,62 %
10.10.2022 03:58 8,4 C 7,8 C 4,4 C 86 % 1015,3 hPa 0,0 l/m 0 min 0 min 0 W/m 12,9 km/h (3 Bft) 91,49 %
10.10.2022 04:00 8,4 C 7,8 C 4,4 C 86 % 1015,4 hPa 0,0 l/m 0 min 0 min 0 W/m 12,9 km/h (3 Bft) 93,48 %
10.10.2022 04:02 8,4 C 7,8 C 4,4 C 86 % 1015,4 hPa 0,0 l/m 0 min 0 min 0 W/m 12,9 km/h (3 Bft) 100,00 %
10.10.2022 04:04 8,4 C 7,8 C 4,4 C 86 % 1015,4 hPa 0,0 l/m 0 min 0 min 0 W/m 6,4 km/h (2 Bft) 95,74 %
10.10.2022 04:06 8,4 C 7,8 C 4,4 C 86 % 1015,3 hPa 0,0 l/m 0 min 0 min 0 W/m 6,4 km/h (2 Bft) 97,87 %
10.10.2022 04:08 8,4 C 7,8 C 4,4 C 86 % 1015,3 hPa 0,0 l/m 0 min 0 min 0 W/m 9,7 km/h (2 Bft) 95,74 %
10.10.2022 04:10 8,4 C 7,8 C 4,4 C 86 % 1015,3 hPa 0,0 l/m 0 min 0 min 0 W/m 16,1 km/h (3 Bft) 95,74 %
10.10.2022 04:12 8,4 C 7,8 C 4,4 C 87 % 1015,3 hPa 0,0 l/m 0 min 0 min 0 W/m 6,4 km/h (2 Bft) 93,48 %
10.10.2022 04:14 8,4 C 7,8 C 4,4 C 87 % 1015,3 hPa 0,0 l/m 0 min 0 min 0 W/m 12,9 km/h (3 Bft) 100,00 %
10.10.2022 04:16 8,4 C 7,8 C 4,4 C 87 % 1015,3 hPa 0,0 l/m 0 min 0 min 0 W/m 9,7 km/h (2 Bft) 93,62 %
10.10.2022 04:18 8,4 C 7,8 C 4,4 C 87 % 1015,3 hPa 0,0 l/m 0 min 0 min 0 W/m 12,9 km/h (3 Bft) 97,87 %
10.10.2022 04:20 8,4 C 7,8 C 4,4 C 87 % 1015,3 hPa 0,0 l/m 0 min 0 min 0 W/m 12,9 km/h (3 Bft) 97,87 %
10.10.2022 04:22 8,4 C 7,8 C 4,4 C 86 % 1015,3 hPa 0,0 l/m 0 min 0 min 0 W/m 12,9 km/h (3 Bft) 100,00 %
10.10.2022 04:24 8,4 C 7,8 C 4,4 C 86 % 1015,2 hPa 0,0 l/m 0 min 0 min 0 W/m 6,4 km/h (2 Bft) 95,74 %
10.10.2022 04:26 8,4 C 7,8 C 4,4 C 86 % 1015,2 hPa 0,0 l/m 0 min 0 min 0 W/m 6,4 km/h (2 Bft) 100,00 %
10.10.2022 04:28 8,4 C 7,8 C 4,4 C 86 % 1015,2 hPa 0,0 l/m 0 min 0 min 0 W/m 6,4 km/h (2 Bft) 97,87 %
10.10.2022 04:30 8,4 C 7,8 C 4,4 C 86 % 1015,2 hPa 0,0 l/m 0 min 0 min 0 W/m 6,4 km/h (2 Bft) 100,00 %
10.10.2022 04:32 8,4 C 7,8 C 4,4 C 87 % 1015,2 hPa 0,0 l/m 0 min 0 min 0 W/m 16,1 km/h (3 Bft) 100,00 %
10.10.2022 04:34 8,4 C 7,8 C 4,4 C 87 % 1015,2 hPa 0,0 l/m 0 min 0 min 0 W/m 9,7 km/h (2 Bft) 97,83 %
10.10.2022 04:36 8,4 C 7,8 C 4,4 C 87 % 1015,1 hPa 0,0 l/m 0 min 0 min 0 W/m 12,9 km/h (3 Bft) 100,00 %
10.10.2022 04:38 8,4 C 7,8 C 4,4 C 87 % 1015,1 hPa 0,0 l/m 0 min 0 min 0 W/m 6,4 km/h (2 Bft) 100,00 %
10.10.2022 04:40 8,4 C 7,8 C 4,4 C 87 % 1015,1 hPa 0,0 l/m 0 min 0 min 0 W/m 12,9 km/h (3 Bft) 100,00 %
10.10.2022 04:42 8,4 C 7,8 C 4,4 C 87 % 1015,1 hPa 0,0 l/m 0 min 0 min 0 W/m 6,4 km/h (2 Bft) 97,87 %
10.10.2022 04:44 8,4 C 7,8 C 4,4 C 87 % 1015,1 hPa 0,0 l/m 0 min 0 min 0 W/m 12,9 km/h (3 Bft) 100,00 %
10.10.2022 04:46 8,4 C 7,8 C 4,4 C 87 % 1015,0 hPa 0,0 l/m 0 min 0 min 0 W/m 6,4 km/h (2 Bft) 100,00 %
10.10.2022 04:48 8,4 C 7,8 C 4,4 C 87 % 1015,0 hPa 0,0 l/m 0 min 0 min 0 W/m 6,4 km/h (2 Bft) 100,00 %
10.10.2022 04:50 8,4 C 7,8 C 4,4 C 87 % 1015,0 hPa 0,0 l/m 0 min 0 min 0 W/m 6,4 km/h (2 Bft) 100,00 %
10.10.2022 04:52 8,4 C 7,8 C 4,4 C 87 % 1015,0 hPa 0,0 l/m 0 min 0 min 0 W/m 12,9 km/h (3 Bft) 100,00 %
10.10.2022 04:54 8,4 C 7,8 C 4,4 C 87 % 1015,0 hPa 0,0 l/m 0 min 0 min 0 W/m 12,9 km/h (3 Bft) 100,00 %
10.10.2022 04:56 8,4 C 7,8 C 4,4 C 87 % 1015,0 hPa 0,0 l/m 0 min 0 min 0 W/m 6,4 km/h (2 Bft) 95,74 %
10.10.2022 04:58 8,4 C 7,8 C 4,4 C 87 % 1014,9 hPa 0,0 l/m 0 min 0 min 0 W/m 6,4 km/h (2 Bft) 97,83 %
10.10.2022 05:00 8,4 C 7,8 C 4,4 C 87 % 1014,9 hPa 0,0 l/m 0 min 0 min 0 W/m 12,9 km/h (3 Bft) 100,00 %
10.10.2022 05:02 8,3 C 7,8 C 4,4 C 87 % 1014,9 hPa 0,0 l/m 0 min 0 min 0 W/m 6,4 km/h (2 Bft) 100,00 %
10.10.2022 05:04 8,3 C 7,8 C 4,4 C 87 % 1014,9 hPa 0,0 l/m 0 min 0 min 0 W/m 12,9 km/h (3 Bft) 100,00 %
10.10.2022 05:06 8,3 C 7,8 C 4,4 C 87 % 1014,9 hPa 0,0 l/m 0 min 0 min 0 W/m 16,1 km/h (3 Bft) 100,00 %
10.10.2022 05:08 8,3 C 7,8 C 4,4 C 87 % 1014,8 hPa 0,0 l/m 0 min 0 min 0 W/m 6,4 km/h (2 Bft) 100,00 %
10.10.2022 05:10 8,3 C 7,8 C 4,4 C 87 % 1014,9 hPa 0,0 l/m 0 min 0 min 0 W/m 6,4 km/h (2 Bft) 97,83 %
10.10.2022 05:12 8,3 C 7,8 C 4,4 C 87 % 1014,9 hPa 0,0 l/m 0 min 0 min 0 W/m 16,1 km/h (3 Bft) 100,00 %
10.10.2022 05:14 8,3 C 7,8 C 4,4 C 87 % 1014,8 hPa 0,0 l/m 0 min 0 min 0 W/m 16,1 km/h (3 Bft) 100,00 %
10.10.2022 05:16 8,3 C 7,8 C 4,4 C 87 % 1014,8 hPa 0,0 l/m 0 min 0 min 0 W/m 12,9 km/h (3 Bft) 100,00 %
10.10.2022 05:18 8,3 C 7,8 C 4,4 C 87 % 1014,8 hPa 0,0 l/m 0 min 0 min 0 W/m 6,4 km/h (2 Bft) 97,87 %
10.10.2022 05:20 8,3 C 7,8 C 4,4 C 87 % 1014,8 hPa 0,0 l/m 0 min 0 min 0 W/m 6,4 km/h (2 Bft) 97,87 %
10.10.2022 05:22 8,3 C 7,8 C 4,4 C 87 % 1014,9 hPa 0,0 l/m 0 min 0 min 0 W/m 12,9 km/h (3 Bft) 95,65 %
10.10.2022 05:24 8,3 C 7,8 C 4,4 C 87 % 1014,8 hPa 0,0 l/m 0 min 0 min 0 W/m 16,1 km/h (3 Bft) 97,87 %
10.10.2022 05:26 8,3 C 7,8 C 4,4 C 87 % 1014,9 hPa 0,0 l/m 0 min 0 min 0 W/m 16,1 km/h (3 Bft) 97,87 %
10.10.2022 05:28 8,3 C 7,8 C 4,4 C 87 % 1014,8 hPa 0,0 l/m 0 min 0 min 0 W/m 9,7 km/h (2 Bft) 95,74 %
10.10.2022 05:30 8,3 C 7,8 C 4,4 C 87 % 1014,9 hPa 0,0 l/m 0 min 0 min 0 W/m 9,7 km/h (2 Bft) 97,87 %
10.10.2022 05:32 8,3 C 7,8 C 4,4 C 87 % 1014,8 hPa 0,0 l/m 0 min 0 min 0 W/m 16,1 km/h (3 Bft) 97,87 %
10.10.2022 05:34 8,3 C 7,8 C 4,4 C 88 % 1014,9 hPa 0,0 l/m 0 min 0 min 0 W/m 6,4 km/h (2 Bft) 97,83 %
10.10.2022 05:36 8,3 C 7,8 C 4,4 C 88 % 1014,8 hPa 0,0 l/m 0 min 0 min 0 W/m 12,9 km/h (3 Bft) 97,87 %
10.10.2022 05:38 8,3 C 7,8 C 4,4 C 88 % 1014,8 hPa 0,0 l/m 0 min 0 min 0 W/m 12,9 km/h (3 Bft) 97,87 %
10.10.2022 05:40 8,3 C 7,8 C 4,4 C 88 % 1014,8 hPa 0,0 l/m 0 min 0 min 0 W/m 12,9 km/h (3 Bft) 97,87 %
10.10.2022 05:42 8,3 C 7,8 C 4,4 C 88 % 1014,8 hPa 0,0 l/m 0 min 0 min 0 W/m 9,7 km/h (2 Bft) 47,37 %
10.10.2022 05:44 8,3 C 7,8 C 4,4 C 88 % 1014,8 hPa 0,0 l/m 0 min 0 min 0 W/m 16,1 km/h (3 Bft) 97,67 %
10.10.2022 05:46 8,3 C 7,8 C 4,4 C 88 % 1014,8 hPa 0,0 l/m 0 min 0 min 0 W/m 12,9 km/h (3 Bft) 95,65 %
10.10.2022 05:48 8,3 C 7,8 C 4,4 C 88 % 1014,7 hPa 0,0 l/m 0 min 0 min 0 W/m 6,4 km/h (2 Bft) 97,87 %
10.10.2022 05:50 8,3 C 7,8 C 4,4 C 88 % 1014,7 hPa 0,0 l/m 0 min 0 min 0 W/m 9,7 km/h (2 Bft) 97,87 %
10.10.2022 05:52 8,3 C 7,8 C 4,4 C 88 % 1014,7 hPa 0,0 l/m 0 min 0 min 0 W/m 6,4 km/h (2 Bft) 95,74 %
10.10.2022 05:54 8,3 C 7,8 C 4,4 C 88 % 1014,7 hPa 0,0 l/m 0 min 0 min 0 W/m 6,4 km/h (2 Bft) 97,87 %
10.10.2022 05:56 8,3 C 7,8 C 4,4 C 88 % 1014,7 hPa 0,0 l/m 0 min 0 min 0 W/m 6,4 km/h (2 Bft) 100,00 %
10.10.2022 05:58 8,3 C 7,8 C 4,4 C 88 % 1014,7 hPa 0,0 l/m 0 min 0 min 0 W/m 12,9 km/h (3 Bft) 100,00 %
10.10.2022 06:00 8,3 C 7,8 C 4,4 C 88 % 1014,7 hPa 0,0 l/m 0 min 0 min 0 W/m 9,7 km/h (2 Bft) 100,00 %
10.10.2022 06:02 8,3 C 7,8 C 4,4 C 88 % 1014,8 hPa 0,0 l/m 0 min 0 min 0 W/m 12,9 km/h (3 Bft) 97,96 %
10.10.2022 06:04 8,3 C 7,8 C 4,4 C 88 % 1014,7 hPa 0,0 l/m 0 min 0 min 0 W/m 12,9 km/h (3 Bft) 97,87 %
10.10.2022 06:08 8,3 C 7,8 C 4,4 C 88 % 1014,8 hPa 0,0 l/m 0 min 0 min 0 W/m 12,9 km/h (3 Bft) 97,87 %
10.10.2022 06:10 8,3 C 7,8 C 4,4 C 88 % 1014,8 hPa 0,0 l/m 0 min 0 min 0 W/m 16,1 km/h (3 Bft) 95,74 %
10.10.2022 06:12 8,3 C 7,8 C 4,4 C 88 % 1014,8 hPa 0,0 l/m 0 min 0 min 0 W/m 12,9 km/h (3 Bft) 95,74 %
10.10.2022 06:14 8,3 C 7,8 C 4,4 C 88 % 1014,8 hPa 0,0 l/m 0 min 0 min 0 W/m 12,9 km/h (3 Bft) 97,83 %
10.10.2022 06:16 8,3 C 7,8 C 4,4 C 88 % 1014,8 hPa 0,0 l/m 0 min 0 min 0 W/m 12,9 km/h (3 Bft) 97,87 %
10.10.2022 06:18 8,3 C 7,8 C 4,4 C 88 % 1014,8 hPa 0,0 l/m 0 min 0 min 0 W/m 9,7 km/h (2 Bft) 97,87 %
10.10.2022 06:20 8,3 C 7,8 C 4,4 C 88 % 1014,8 hPa 0,0 l/m 0 min 0 min 0 W/m 16,1 km/h (3 Bft) 97,87 %
10.10.2022 06:22 8,3 C 7,8 C 4,4 C 88 % 1014,8 hPa 0,0 l/m 0 min 0 min 0 W/m 16,1 km/h (3 Bft) 97,87 %
10.10.2022 06:24 8,3 C 7,8 C 4,4 C 88 % 1014,7 hPa 0,0 l/m 0 min 0 min 0 W/m 12,9 km/h (3 Bft) 93,62 %
10.10.2022 06:26 8,3 C 7,8 C 4,4 C 88 % 1014,8 hPa 0,0 l/m 0 min 0 min 0 W/m 12,9 km/h (3 Bft) 97,83 %
10.10.2022 06:28 8,3 C 7,8 C 4,4 C 88 % 1014,7 hPa 0,0 l/m 0 min 0 min 0 W/m 16,1 km/h (3 Bft) 97,87 %
10.10.2022 06:30 8,3 C 7,8 C 4,4 C 88 % 1014,7 hPa 0,0 l/m 0 min 0 min 0 W/m 6,4 km/h (2 Bft) 97,87 %
10.10.2022 06:32 8,3 C 7,8 C 4,4 C 88 % 1014,8 hPa 0,0 l/m 0 min 0 min 0 W/m 16,1 km/h (3 Bft) 97,87 %
10.10.2022 06:34 8,3 C 7,8 C 4,4 C 88 % 1014,7 hPa 0,0 l/m 0 min 0 min 0 W/m 12,9 km/h (3 Bft) 97,87 %
10.10.2022 06:36 8,3 C 7,8 C 4,4 C 88 % 1014,7 hPa 0,0 l/m 0 min 0 min 0 W/m 16,1 km/h (3 Bft) 97,87 %
10.10.2022 06:38 8,3 C 7,8 C 4,4 C 88 % 1014,7 hPa 0,0 l/m 0 min 0 min 0 W/m 16,1 km/h (3 Bft) 95,65 %
10.10.2022 06:40 8,3 C 7,8 C 4,4 C 88 % 1014,7 hPa 0,0 l/m 0 min 0 min 0 W/m 12,9 km/h (3 Bft) 97,87 %
10.10.2022 06:42 8,2 C 7,2 C 4,4 C 88 % 1014,7 hPa 0,0 l/m 0 min 0 min 0 W/m 16,1 km/h (3 Bft) 95,74 %
10.10.2022 06:44 8,2 C 7,2 C 4,4 C 88 % 1014,7 hPa 0,0 l/m 0 min 0 min 0 W/m 19,3 km/h (3 Bft) 97,87 %
10.10.2022 06:46 8,2 C 7,2 C 4,4 C 88 % 1014,6 hPa 0,0 l/m 0 min 0 min 0 W/m 6,4 km/h (2 Bft) 97,87 %
10.10.2022 06:48 8,2 C 7,2 C 4,4 C 88 % 1014,6 hPa 0,0 l/m 0 min 0 min 0 W/m 16,1 km/h (3 Bft) 97,83 %
10.10.2022 06:50 8,2 C 7,2 C 4,4 C 88 % 1014,7 hPa 0,0 l/m 0 min 0 min 0 W/m 12,9 km/h (3 Bft) 97,87 %
10.10.2022 06:52 8,2 C 7,2 C 4,4 C 88 % 1014,6 hPa 0,0 l/m 0 min 0 min 0 W/m 16,1 km/h (3 Bft) 95,74 %
10.10.2022 06:54 8,2 C 7,2 C 4,4 C 88 % 1014,7 hPa 0,0 l/m 0 min 0 min 0 W/m 16,1 km/h (3 Bft) 95,74 %
10.10.2022 06:56 8,2 C 7,2 C 4,4 C 88 % 1014,7 hPa 0,0 l/m 0 min 0 min 0 W/m 6,4 km/h (2 Bft) 95,74 %
10.10.2022 06:58 8,1 C 7,2 C 3,9 C 89 % 1014,7 hPa 0,0 l/m 0 min 0 min 0 W/m 12,9 km/h (3 Bft) 97,87 %
10.10.2022 07:00 8,1 C 7,2 C 3,9 C 89 % 1014,6 hPa 0,0 l/m 0 min 0 min 0 W/m 12,9 km/h (3 Bft) 95,65 %
10.10.2022 07:02 8,1 C 7,2 C 3,9 C 88 % 1014,7 hPa 0,0 l/m 0 min 0 min 0 W/m 16,1 km/h (3 Bft) 95,74 %
10.10.2022 07:04 8,1 C 7,2 C 3,9 C 89 % 1014,6 hPa 0,0 l/m 0 min 0 min 0 W/m 16,1 km/h (3 Bft) 97,87 %
10.10.2022 07:06 8,1 C 7,2 C 3,9 C 89 % 1014,7 hPa 0,0 l/m 0 min 0 min 0 W/m 12,9 km/h (3 Bft) 95,74 %
10.10.2022 07:08 8,0 C 7,2 C 3,9 C 89 % 1014,6 hPa 0,0 l/m 0 min 0 min 0 W/m 6,4 km/h (2 Bft) 50,00 %
10.10.2022 07:10 8,0 C 7,2 C 3,9 C 89 % 1014,6 hPa 0,0 l/m 0 min 0 min 0 W/m 12,9 km/h (3 Bft) 95,74 %
10.10.2022 07:12 7,9 C 7,2 C 3,9 C 89 % 1014,6 hPa 0,0 l/m 0 min 0 min 0 W/m 6,4 km/h (2 Bft) 95,65 %
10.10.2022 07:14 7,9 C 7,2 C 3,9 C 89 % 1014,7 hPa 0,0 l/m 0 min 0 min 0 W/m 16,1 km/h (3 Bft) 97,87 %
10.10.2022 07:16 7,9 C 7,2 C 3,9 C 89 % 1014,7 hPa 0,0 l/m 0 min 0 min 0 W/m 9,7 km/h (2 Bft) 97,87 %
10.10.2022 07:21 7,8 C 7,2 C 3,9 C 89 % 1014,6 hPa 0,0 l/m 0 min 0 min 0 W/m 12,9 km/h (3 Bft) 92,98 %
10.10.2022 07:22 7,8 C 7,2 C 3,9 C 89 % 1014,6 hPa 0,0 l/m 0 min 0 min 0 W/m 12,9 km/h (3 Bft) 91,67 %
10.10.2022 07:24 7,8 C 7,2 C 3,9 C 89 % 1014,6 hPa 0,0 l/m 0 min 0 min 0 W/m 12,9 km/h (3 Bft) 95,74 %
10.10.2022 07:26 7,8 C 7,2 C 3,9 C 90 % 1014,7 hPa 0,0 l/m 0 min 0 min 0 W/m 9,7 km/h (2 Bft) 93,48 %
10.10.2022 07:28 7,8 C 7,2 C 3,9 C 90 % 1014,6 hPa 0,0 l/m 0 min 0 min 0 W/m 16,1 km/h (3 Bft) 93,62 %
10.10.2022 07:30 7,8 C 7,2 C 3,9 C 90 % 1014,6 hPa 0,0 l/m 0 min 0 min 0 W/m 12,9 km/h (3 Bft) 93,62 %
10.10.2022 07:32 7,8 C 7,2 C 3,9 C 90 % 1014,7 hPa 0,0 l/m 0 min 0 min 0 W/m 6,4 km/h (2 Bft) 95,74 %
10.10.2022 07:34 7,8 C 7,2 C 3,9 C 90 % 1014,6 hPa 0,0 l/m 0 min 0 min 0 W/m 6,4 km/h (2 Bft) 95,74 %
10.10.2022 07:36 7,8 C 6,7 C 3,9 C 90 % 1014,7 hPa 0,0 l/m 0 min 0 min 0 W/m 12,9 km/h (3 Bft) 97,83 %
10.10.2022 07:38 7,8 C 6,7 C 3,9 C 90 % 1014,7 hPa 0,0 l/m 0 min 0 min 0 W/m 12,9 km/h (3 Bft) 100,00 %
10.10.2022 07:40 7,8 C 6,7 C 3,9 C 90 % 1014,7 hPa 0,0 l/m 0 min 0 min 0 W/m 12,9 km/h (3 Bft) 100,00 %
10.10.2022 07:42 7,8 C 7,2 C 3,9 C 90 % 1014,6 hPa 0,0 l/m 0 min 0 min 0 W/m 9,7 km/h (2 Bft) 97,87 %
10.10.2022 07:44 7,7 C 7,2 C 3,9 C 90 % 1014,7 hPa 0,0 l/m 0 min 0 min 4 W/m 12,9 km/h (3 Bft) 100,00 %
10.10.2022 07:46 7,7 C 7,2 C 3,9 C 90 % 1014,7 hPa 0,0 l/m 0 min 0 min 5 W/m 6,4 km/h (2 Bft) 97,87 %
10.10.2022 07:48 7,7 C 7,2 C 3,9 C 90 % 1014,7 hPa 0,0 l/m 0 min 0 min 5 W/m 9,7 km/h (2 Bft) 100,00 %
10.10.2022 07:50 7,7 C 7,2 C 3,9 C 90 % 1014,7 hPa 0,0 l/m 0 min 0 min 6 W/m 6,4 km/h (2 Bft) 97,87 %
10.10.2022 07:52 7,7 C 6,7 C 3,9 C 90 % 1014,7 hPa 0,0 l/m 0 min 0 min 7 W/m 6,4 km/h (2 Bft) 100,00 %
10.10.2022 07:54 7,7 C 6,7 C 3,9 C 91 % 1014,7 hPa 0,0 l/m 0 min 0 min 7 W/m 12,9 km/h (3 Bft) 100,00 %
10.10.2022 07:56 7,7 C 6,7 C 3,9 C 91 % 1014,7 hPa 0,0 l/m 0 min 0 min 8 W/m 6,4 km/h (2 Bft) 97,87 %
10.10.2022 07:58 7,7 C 6,7 C 3,9 C 90 % 1014,7 hPa 0,0 l/m 0 min 0 min 9 W/m 12,9 km/h (3 Bft) 97,87 %
10.10.2022 08:00 7,7 C 6,7 C 3,9 C 91 % 1014,8 hPa 0,0 l/m 0 min 0 min 11 W/m 6,4 km/h (2 Bft) 97,83 %
10.10.2022 08:02 7,7 C 6,7 C 3,9 C 91 % 1014,7 hPa 0,0 l/m 0 min 0 min 11 W/m 6,4 km/h (2 Bft) 97,87 %
10.10.2022 08:04 7,7 C 6,7 C 3,9 C 91 % 1014,8 hPa 0,0 l/m 0 min 0 min 12 W/m 6,4 km/h (2 Bft) 100,00 %
10.10.2022 08:06 7,7 C 6,7 C 3,9 C 91 % 1014,7 hPa 0,0 l/m 0 min 0 min 14 W/m 6,4 km/h (2 Bft) 97,87 %
10.10.2022 08:08 7,7 C 7,2 C 3,9 C 91 % 1014,7 hPa 0,0 l/m 0 min 0 min 16 W/m 12,9 km/h (3 Bft) 100,00 %
10.10.2022 08:10 7,7 C 7,2 C 3,9 C 91 % 1014,7 hPa 0,0 l/m 0 min 0 min 17 W/m 6,4 km/h (2 Bft) 100,00 %
10.10.2022 08:12 7,7 C 7,2 C 3,9 C 91 % 1014,7 hPa 0,0 l/m 0 min 0 min 19 W/m 6,4 km/h (2 Bft) 97,83 %
10.10.2022 08:14 7,7 C 7,2 C 3,9 C 91 % 1014,7 hPa 0,0 l/m 0 min 0 min 20 W/m 12,9 km/h (3 Bft) 100,00 %
10.10.2022 08:16 7,7 C 7,2 C 3,9 C 91 % 1014,7 hPa 0,0 l/m 0 min 0 min 22 W/m 12,9 km/h (3 Bft) 100,00 %
10.10.2022 08:18 7,7 C 7,2 C 3,9 C 91 % 1014,8 hPa 0,0 l/m 0 min 0 min 25 W/m 6,4 km/h (2 Bft) 100,00 %
10.10.2022 08:20 7,7 C 7,2 C 3,9 C 91 % 1014,8 hPa 0,0 l/m 0 min 0 min 26 W/m 12,9 km/h (3 Bft) 100,00 %
10.10.2022 08:22 7,7 C 7,2 C 3,9 C 91 % 1014,8 hPa 0,0 l/m 0 min 0 min 28 W/m 6,4 km/h (2 Bft) 97,87 %
10.10.2022 08:24 7,7 C 7,2 C 3,9 C 91 % 1014,8 hPa 0,0 l/m 0 min 0 min 31 W/m 12,9 km/h (3 Bft) 100,00 %
10.10.2022 08:26 7,7 C 7,2 C 3,9 C 91 % 1014,8 hPa 0,0 l/m 0 min 0 min 32 W/m 6,4 km/h (2 Bft) 97,87 %
10.10.2022 08:28 7,8 C 7,2 C 3,9 C 91 % 1014,8 hPa 0,0 l/m 0 min 0 min 33 W/m 12,9 km/h (3 Bft) 97,87 %
10.10.2022 08:30 7,8 C 7,2 C 3,9 C 91 % 1014,8 hPa 0,0 l/m 0 min 0 min 35 W/m 16,1 km/h (3 Bft) 97,87 %
10.10.2022 08:32 7,8 C 7,2 C 3,9 C 91 % 1014,8 hPa 0,0 l/m 0 min 0 min 37 W/m 6,4 km/h (2 Bft) 97,87 %
10.10.2022 08:34 7,8 C 7,2 C 4,4 C 92 % 1014,8 hPa 0,0 l/m 0 min 0 min 39 W/m 6,4 km/h (2 Bft) 97,87 %
10.10.2022 08:36 7,8 C 7,2 C 4,4 C 92 % 1014,8 hPa 0,0 l/m 0 min 0 min 40 W/m 12,9 km/h (3 Bft) 97,83 %
10.10.2022 08:38 7,9 C 7,2 C 4,4 C 92 % 1014,8 hPa 0,0 l/m 0 min 0 min 42 W/m 6,4 km/h (2 Bft) 97,87 %
10.10.2022 08:40 7,9 C 7,2 C 4,4 C 92 % 1014,9 hPa 0,0 l/m 0 min 0 min 42 W/m 9,7 km/h (2 Bft) 95,74 %
10.10.2022 08:42 7,9 C 7,8 C 4,4 C 92 % 1014,9 hPa 0,0 l/m 0 min 0 min 45 W/m 6,4 km/h (2 Bft) 97,87 %
10.10.2022 08:44 7,9 C 7,8 C 4,4 C 92 % 1014,9 hPa 0,0 l/m 0 min 0 min 47 W/m 12,9 km/h (3 Bft) 97,87 %
10.10.2022 08:46 8,0 C 7,8 C 4,4 C 92 % 1014,9 hPa 0,0 l/m 0 min 0 min 48 W/m 12,9 km/h (3 Bft) 95,74 %
10.10.2022 08:48 8,0 C 7,8 C 4,4 C 92 % 1014,9 hPa 0,0 l/m 0 min 0 min 49 W/m 6,4 km/h (2 Bft) 97,83 %
10.10.2022 08:50 8,1 C 7,8 C 4,4 C 92 % 1014,9 hPa 0,0 l/m 0 min 0 min 52 W/m 6,4 km/h (2 Bft) 97,87 %
10.10.2022 08:52 8,1 C 7,8 C 4,4 C 92 % 1014,9 hPa 0,0 l/m 0 min 0 min 53 W/m 6,4 km/h (2 Bft) 97,87 %
10.10.2022 08:54 8,1 C 7,8 C 4,4 C 92 % 1015,0 hPa 0,0 l/m 0 min 0 min 54 W/m 12,9 km/h (3 Bft) 97,87 %
10.10.2022 08:56 8,2 C 7,8 C 4,4 C 92 % 1015,0 hPa 0,0 l/m 0 min 0 min 54 W/m 6,4 km/h (2 Bft) 93,62 %
10.10.2022 08:58 8,2 C 8,3 C 5,0 C 92 % 1014,9 hPa 0,0 l/m 0 min 0 min 55 W/m 9,7 km/h (2 Bft) 95,74 %
10.10.2022 09:00 8,3 C 8,3 C 5,0 C 92 % 1015,0 hPa 0,0 l/m 0 min 0 min 58 W/m 12,9 km/h (3 Bft) 95,65 %
10.10.2022 09:02 8,3 C 8,3 C 5,0 C 92 % 1015,0 hPa 0,0 l/m 0 min 0 min 58 W/m 12,9 km/h (3 Bft) 93,62 %
10.10.2022 09:04 8,4 C 8,3 C 5,0 C 92 % 1015,0 hPa 0,0 l/m 0 min 0 min 58 W/m 6,4 km/h (2 Bft) 95,74 %
10.10.2022 09:06 8,4 C 8,3 C 5,0 C 92 % 1015,0 hPa 0,0 l/m 0 min 0 min 57 W/m 3,2 km/h (1 Bft) 93,62 %
10.10.2022 09:08 8,5 C 8,3 C 5,0 C 92 % 1015,0 hPa 0,0 l/m 0 min 0 min 56 W/m 6,4 km/h (2 Bft) 97,87 %
10.10.2022 09:10 8,5 C 8,3 C 5,0 C 92 % 1015,0 hPa 0,0 l/m 0 min 0 min 58 W/m 12,9 km/h (3 Bft) 97,87 %
10.10.2022 09:12 8,6 C 8,3 C 5,0 C 92 % 1015,0 hPa 0,0 l/m 0 min 0 min 58 W/m 12,9 km/h (3 Bft) 97,83 %
10.10.2022 09:14 8,6 C 8,9 C 5,0 C 92 % 1015,0 hPa 0,0 l/m 0 min 0 min 58 W/m 9,7 km/h (2 Bft) 97,87 %
10.10.2022 09:16 8,7 C 8,9 C 5,0 C 92 % 1014,9 hPa 0,0 l/m 0 min 0 min 58 W/m 6,4 km/h (2 Bft) 97,87 %
10.10.2022 09:18 8,8 C 8,9 C 5,6 C 92 % 1015,0 hPa 0,0 l/m 0 min 0 min 56 W/m 16,1 km/h (3 Bft) 97,87 %
10.10.2022 09:20 8,8 C 8,9 C 5,6 C 92 % 1014,9 hPa 0,0 l/m 0 min 0 min 54 W/m 6,4 km/h (2 Bft) 97,87 %
10.10.2022 09:22 8,8 C 8,9 C 5,6 C 92 % 1014,9 hPa 0,0 l/m 0 min 0 min 53 W/m 16,1 km/h (3 Bft) 97,87 %
10.10.2022 09:24 8,9 C 8,9 C 5,6 C 92 % 1015,0 hPa 0,0 l/m 0 min 0 min 52 W/m 12,9 km/h (3 Bft) 97,83 %
10.10.2022 09:26 9,0 C 8,9 C 5,6 C 92 % 1015,0 hPa 0,0 l/m 0 min 0 min 51 W/m 12,9 km/h (3 Bft) 97,87 %
10.10.2022 09:28 9,1 C 8,9 C 5,6 C 92 % 1015,0 hPa 0,0 l/m 0 min 0 min 50 W/m 6,4 km/h (2 Bft) 97,87 %
10.10.2022 09:30 9,1 C 8,9 C 5,6 C 92 % 1015,0 hPa 0,0 l/m 0 min 0 min 48 W/m 12,9 km/h (3 Bft) 100,00 %
10.10.2022 09:32 9,1 C 8,9 C 5,6 C 92 % 1015,0 hPa 0,0 l/m 0 min 0 min 46 W/m 6,4 km/h (2 Bft) 100,00 %
10.10.2022 09:34 9,2 C 8,9 C 5,6 C 92 % 1014,9 hPa 0,0 l/m 0 min 0 min 45 W/m 9,7 km/h (2 Bft) 100,00 %
10.10.2022 09:36 9,3 C 8,9 C 5,6 C 92 % 1015,0 hPa 0,0 l/m 0 min 0 min 43 W/m 12,9 km/h (3 Bft) 100,00 %
10.10.2022 09:38 9,3 C 9,4 C 5,6 C 92 % 1014,9 hPa 0,0 l/m 0 min 0 min 42 W/m 6,4 km/h (2 Bft) 100,00 %
10.10.2022 09:40 9,3 C 9,4 C 5,6 C 91 % 1015,0 hPa 0,0 l/m 0 min 0 min 41 W/m 6,4 km/h (2 Bft) 100,00 %
10.10.2022 09:42 9,4 C 9,4 C 5,6 C 91 % 1015,0 hPa 0,0 l/m 0 min 0 min 39 W/m 6,4 km/h (2 Bft) 100,00 %
10.10.2022 09:44 9,4 C 9,4 C 5,6 C 91 % 1015,0 hPa 0,0 l/m 0 min 0 min 39 W/m 6,4 km/h (2 Bft) 100,00 %
10.10.2022 09:46 9,4 C 9,4 C 5,6 C 91 % 1015,0 hPa 0,0 l/m 0 min 0 min 37 W/m 16,1 km/h (3 Bft) 97,87 %
10.10.2022 09:48 9,5 C 9,4 C 5,6 C 91 % 1015,0 hPa 0,0 l/m 0 min 0 min 37 W/m 12,9 km/h (3 Bft) 100,00 %
10.10.2022 09:50 9,5 C 9,4 C 5,6 C 91 % 1015,1 hPa 0,0 l/m 0 min 0 min 38 W/m 6,4 km/h (2 Bft) 97,87 %
10.10.2022 09:52 9,6 C 9,4 C 5,6 C 91 % 1015,1 hPa 0,0 l/m 0 min 0 min 38 W/m 6,4 km/h (2 Bft) 97,87 %
10.10.2022 09:54 9,6 C 9,4 C 5,6 C 91 % 1015,1 hPa 0,0 l/m 0 min 0 min 37 W/m 6,4 km/h (2 Bft) 97,87 %
10.10.2022 09:56 9,6 C 9,4 C 5,6 C 91 % 1015,2 hPa 0,0 l/m 0 min 0 min 36 W/m 6,4 km/h (2 Bft) 95,74 %
10.10.2022 09:58 9,7 C 9,4 C 5,6 C 91 % 1015,1 hPa 0,0 l/m 0 min 0 min 35 W/m 6,4 km/h (2 Bft) 97,87 %
10.10.2022 10:00 9,7 C 9,4 C 6,1 C 91 % 1015,1 hPa 0,0 l/m 0 min 0 min 37 W/m 3,2 km/h (1 Bft) 97,83 %
10.10.2022 10:02 9,7 C 9,4 C 6,1 C 91 % 1015,1 hPa 0,0 l/m 0 min 0 min 40 W/m 9,7 km/h (2 Bft) 93,62 %
10.10.2022 10:04 9,8 C 9,4 C 6,1 C 91 % 1015,1 hPa 0,0 l/m 0 min 0 min 41 W/m 12,9 km/h (3 Bft) 97,87 %
10.10.2022 10:06 9,8 C 9,4 C 6,1 C 91 % 1015,2 hPa 0,0 l/m 0 min 0 min 43 W/m 6,4 km/h (2 Bft) 97,87 %
10.10.2022 10:08 9,8 C 10,0 C 6,1 C 91 % 1015,1 hPa 0,0 l/m 0 min 0 min 51 W/m 6,4 km/h (2 Bft) 97,87 %
10.10.2022 10:10 9,9 C 10,0 C 6,1 C 91 % 1015,2 hPa 0,0 l/m 0 min 0 min 48 W/m 9,7 km/h (2 Bft) 97,87 %
10.10.2022 10:12 10,0 C 10,0 C 6,1 C 91 % 1015,2 hPa 0,0 l/m 0 min 0 min 51 W/m 9,7 km/h (2 Bft) 97,83 %
10.10.2022 10:14 10,1 C 10,6 C 6,7 C 91 % 1015,2 hPa 0,0 l/m 0 min 0 min 50 W/m 12,9 km/h (3 Bft) 97,87 %
10.10.2022 10:16 10,2 C 10,6 C 6,7 C 91 % 1015,3 hPa 0,0 l/m 0 min 0 min 49 W/m 6,4 km/h (2 Bft) 97,87 %
10.10.2022 10:18 10,3 C 10,6 C 6,7 C 91 % 1015,2 hPa 0,0 l/m 0 min 0 min 48 W/m 6,4 km/h (2 Bft) 97,87 %
10.10.2022 10:20 10,4 C 10,6 C 6,7 C 91 % 1015,2 hPa 0,0 l/m 0 min 0 min 56 W/m 6,4 km/h (2 Bft) 95,74 %
10.10.2022 10:22 10,5 C 10,6 C 6,7 C 91 % 1015,2 hPa 0,0 l/m 0 min 0 min 47 W/m 12,9 km/h (3 Bft) 97,87 %
10.10.2022 10:24 10,6 C 11,1 C 7,2 C 91 % 1015,4 hPa 0,0 l/m 0 min 0 min 47 W/m 6,4 km/h (2 Bft) 97,83 %
10.10.2022 10:26 10,7 C 11,1 C 7,2 C 91 % 1015,4 hPa 0,0 l/m 0 min 0 min 52 W/m 6,4 km/h (2 Bft) 97,14 %
10.10.2022 10:28 10,8 C 11,1 C 7,2 C 91 % 1015,4 hPa 0,0 l/m 0 min 0 min 58 W/m 6,4 km/h (2 Bft) 93,62 %
10.10.2022 10:30 10,8 C 11,1 C 7,2 C 91 % 1015,4 hPa 0,0 l/m 0 min 0 min 53 W/m 6,4 km/h (2 Bft) 97,87 %
10.10.2022 10:32 10,9 C 11,7 C 7,2 C 91 % 1015,3 hPa 0,0 l/m 0 min 0 min 52 W/m 6,4 km/h (2 Bft) 95,74 %
10.10.2022 10:34 11,1 C 12,2 C 7,2 C 91 % 1015,3 hPa 0,0 l/m 0 min 0 min 51 W/m 12,9 km/h (3 Bft) 100,00 %
10.10.2022 10:36 11,2 C 12,2 C 7,2 C 90 % 1015,3 hPa 0,0 l/m 0 min 0 min 47 W/m 6,4 km/h (2 Bft) 100,00 %
10.10.2022 10:38 11,3 C 12,2 C 7,8 C 90 % 1015,4 hPa 0,0 l/m 0 min 0 min 52 W/m 12,9 km/h (3 Bft) 97,22 %
10.10.2022 10:40 11,3 C 12,2 C 7,8 C 90 % 1015,4 hPa 0,0 l/m 0 min 0 min 51 W/m 12,9 km/h (3 Bft) 100,00 %
10.10.2022 10:42 11,4 C 12,2 C 7,8 C 90 % 1015,4 hPa 0,0 l/m 0 min 0 min 51 W/m 12,9 km/h (3 Bft) 97,87 %
10.10.2022 10:44 11,6 C 12,2 C 7,8 C 90 % 1015,4 hPa 0,0 l/m 0 min 0 min 54 W/m 12,9 km/h (3 Bft) 100,00 %
10.10.2022 10:46 11,7 C 12,2 C 8,3 C 89 % 1015,4 hPa 0,0 l/m 0 min 0 min 51 W/m 6,4 km/h (2 Bft) 100,00 %
10.10.2022 10:48 11,8 C 12,2 C 8,3 C 89 % 1015,3 hPa 0,0 l/m 0 min 0 min 50 W/m 12,9 km/h (3 Bft) 97,62 %
10.10.2022 10:50 11,9 C 12,8 C 8,3 C 89 % 1015,3 hPa 0,0 l/m 0 min 0 min 52 W/m 12,9 km/h (3 Bft) 93,48 %
10.10.2022 10:52 12,0 C 12,8 C 8,3 C 89 % 1015,4 hPa 0,0 l/m 0 min 0 min 79 W/m 16,1 km/h (3 Bft) 95,74 %
10.10.2022 10:54 12,1 C 12,8 C 8,9 C 89 % 1015,4 hPa 0,0 l/m 0 min 0 min 53 W/m 6,4 km/h (2 Bft) 97,87 %
10.10.2022 10:56 12,2 C 12,8 C 8,9 C 88 % 1015,4 hPa 0,0 l/m 0 min 0 min 60 W/m 12,9 km/h (3 Bft) 97,87 %
10.10.2022 10:58 12,3 C 13,3 C 8,9 C 88 % 1015,4 hPa 0,0 l/m 0 min 0 min 77 W/m 6,4 km/h (2 Bft) 97,87 %
10.10.2022 11:00 12,4 C 13,3 C 8,9 C 88 % 1015,4 hPa 0,0 l/m 0 min 0 min 104 W/m 6,4 km/h (2 Bft) 95,74 %
10.10.2022 11:02 12,5 C 13,3 C 8,9 C 87 % 1015,5 hPa 0,0 l/m 0 min 0 min 86 W/m 6,4 km/h (2 Bft) 95,74 %
10.10.2022 11:04 12,6 C 13,9 C 9,4 C 87 % 1015,4 hPa 0,0 l/m 0 min 0 min 71 W/m 12,9 km/h (3 Bft) 97,87 %
10.10.2022 11:06 12,7 C 14,4 C 9,4 C 87 % 1015,4 hPa 0,0 l/m 0 min 0 min 76 W/m 12,9 km/h (3 Bft) 98,31 %
10.10.2022 11:08 12,9 C 15,0 C 10,0 C 87 % 1015,5 hPa 0,0 l/m 0 min 0 min 77 W/m 6,4 km/h (2 Bft) 91,43 %
10.10.2022 11:10 13,0 C 15,6 C 10,0 C 86 % 1015,5 hPa 0,0 l/m 0 min 0 min 96 W/m 6,4 km/h (2 Bft) 95,74 %
10.10.2022 11:12 13,2 C 16,7 C 10,0 C 86 % 1015,5 hPa 0,0 l/m 0 min 0 min 133 W/m 6,4 km/h (2 Bft) 97,87 %
10.10.2022 11:14 13,3 C 17,8 C 10,6 C 86 % 1015,5 hPa 0,0 l/m 0 min 0 min 114 W/m 12,9 km/h (3 Bft) 95,65 %
10.10.2022 11:16 13,5 C 18,3 C 10,6 C 85 % 1015,5 hPa 0,0 l/m 0 min 0 min 144 W/m 12,9 km/h (3 Bft) 94,44 %
10.10.2022 11:18 13,6 C 20,0 C 11,1 C 85 % 1015,4 hPa 0,0 l/m 0 min 0 min 112 W/m 12,9 km/h (3 Bft) 95,74 %
10.10.2022 11:20 13,8 C 20,0 C 11,1 C 84 % 1015,5 hPa 0,0 l/m 0 min 0 min 173 W/m 16,1 km/h (3 Bft) 95,65 %
10.10.2022 11:22 13,9 C 19,4 C 11,7 C 84 % 1015,5 hPa 0,0 l/m 0 min 0 min 194 W/m 9,7 km/h (2 Bft) 95,74 %
10.10.2022 11:24 14,1 C 18,3 C 11,7 C 84 % 1015,5 hPa 0,0 l/m 2 min 0 min 339 W/m 6,4 km/h (2 Bft) 95,74 %
10.10.2022 11:26 14,3 C 17,8 C 11,7 C 83 % 1015,5 hPa 0,0 l/m 2 min 0 min 439 W/m 9,7 km/h (2 Bft) 95,74 %
10.10.2022 11:28 14,4 C 17,8 C 12,2 C 83 % 1015,5 hPa 0,0 l/m 2 min 0 min 491 W/m 6,4 km/h (2 Bft) 93,62 %
10.10.2022 11:30 14,6 C 17,2 C 12,2 C 82 % 1015,5 hPa 0,0 l/m 2 min 0 min 430 W/m 12,9 km/h (3 Bft) 95,74 %
10.10.2022 11:32 14,7 C 16,7 C 12,2 C 82 % 1015,5 hPa 0,0 l/m 2 min 0 min 272 W/m 12,9 km/h (3 Bft) 95,65 %
10.10.2022 11:34 14,7 C 16,7 C 12,2 C 81 % 1015,5 hPa 0,0 l/m 2 min 0 min 277 W/m 6,4 km/h (2 Bft) 97,87 %
10.10.2022 11:36 14,8 C 16,7 C 12,8 C 81 % 1015,5 hPa 0,0 l/m 2 min 0 min 321 W/m 9,7 km/h (2 Bft) 96,61 %
10.10.2022 11:38 14,8 C 17,2 C 13,3 C 81 % 1015,6 hPa 0,0 l/m 2 min 0 min 287 W/m 3,2 km/h (1 Bft) 97,14 %
10.10.2022 11:40 14,9 C 17,2 C 13,3 C 81 % 1015,6 hPa 0,0 l/m 2 min 0 min 248 W/m 12,9 km/h (3 Bft) 97,87 %
10.10.2022 11:42 14,9 C 17,2 C 12,8 C 81 % 1015,5 hPa 0,0 l/m 0 min 0 min 178 W/m 9,7 km/h (2 Bft) 97,87 %
10.10.2022 11:44 14,9 C 18,3 C 13,3 C 81 % 1015,6 hPa 0,0 l/m 2 min 0 min 250 W/m 6,4 km/h (2 Bft) 97,83 %
10.10.2022 11:46 15,0 C 19,4 C 13,9 C 81 % 1015,6 hPa 0,0 l/m 2 min 0 min 332 W/m 3,2 km/h (1 Bft) 97,87 %
10.10.2022 11:48 15,1 C 18,9 C 13,3 C 81 % 1015,6 hPa 0,0 l/m 2 min 0 min 273 W/m 12,9 km/h (3 Bft) 97,87 %
10.10.2022 11:50 15,1 C 18,9 C 13,3 C 81 % 1015,6 hPa 0,0 l/m 2 min 0 min 244 W/m 6,4 km/h (2 Bft) 97,87 %
10.10.2022 11:52 15,1 C 18,9 C 13,3 C 80 % 1015,6 hPa 0,0 l/m 2 min 0 min 331 W/m 12,9 km/h (3 Bft) 97,87 %
10.10.2022 11:54 15,1 C 18,9 C 13,3 C 80 % 1015,5 hPa 0,0 l/m 2 min 0 min 272 W/m 6,4 km/h (2 Bft) 97,87 %
10.10.2022 11:56 15,2 C 18,3 C 12,8 C 80 % 1015,5 hPa 0,0 l/m 2 min 0 min 250 W/m 3,2 km/h (1 Bft) 97,83 %
10.10.2022 11:58 15,2 C 17,8 C 12,8 C 81 % 1015,6 hPa 0,0 l/m 0 min 0 min 186 W/m 3,2 km/h (1 Bft) 97,87 %
10.10.2022 12:00 15,2 C 17,2 C 12,8 C 81 % 1015,6 hPa 0,0 l/m 0 min 0 min 158 W/m 12,9 km/h (3 Bft) 91,49 %
10.10.2022 12:02 15,3 C 17,2 C 12,8 C 81 % 1015,6 hPa 0,0 l/m 0 min 0 min 159 W/m 6,4 km/h (2 Bft) 97,87 %
10.10.2022 12:04 15,4 C 17,2 C 12,8 C 81 % 1015,5 hPa 0,0 l/m 2 min 0 min 269 W/m 12,9 km/h (3 Bft) 97,87 %
10.10.2022 12:08 15,6 C 17,8 C 12,8 C 81 % 1015,5 hPa 0,0 l/m 4 min 0 min 335 W/m 6,4 km/h (2 Bft) 96,84 %
10.10.2022 12:10 15,7 C 17,8 C 12,8 C 80 % 1015,5 hPa 0,0 l/m 0 min 0 min 157 W/m 12,9 km/h (3 Bft) 97,87 %
10.10.2022 12:12 15,9 C 17,2 C 12,8 C 79 % 1015,5 hPa 0,0 l/m 0 min 0 min 128 W/m 22,5 km/h (4 Bft) 100,00 %
10.10.2022 12:14 15,9 C 17,2 C 12,8 C 79 % 1015,5 hPa 0,0 l/m 0 min 0 min 166 W/m 6,4 km/h (2 Bft) 97,87 %
10.10.2022 12:16 16,1 C 17,2 C 12,2 C 79 % 1015,5 hPa 0,0 l/m 0 min 0 min 122 W/m 22,5 km/h (4 Bft) 97,87 %
10.10.2022 12:18 16,2 C 16,7 C 12,2 C 78 % 1015,6 hPa 0,0 l/m 0 min 0 min 106 W/m 22,5 km/h (4 Bft) 97,87 %
10.10.2022 12:20 16,2 C 16,7 C 12,2 C 78 % 1015,6 hPa 0,0 l/m 0 min 0 min 105 W/m 19,3 km/h (3 Bft) 97,83 %
10.10.2022 12:22 16,3 C 16,1 C 12,2 C 78 % 1015,6 hPa 0,0 l/m 0 min 0 min 104 W/m 6,4 km/h (2 Bft) 97,87 %
10.10.2022 12:24 16,3 C 16,1 C 12,2 C 78 % 1015,6 hPa 0,0 l/m 0 min 0 min 102 W/m 6,4 km/h (2 Bft) 100,00 %
10.10.2022 12:26 16,3 C 16,7 C 12,2 C 78 % 1015,6 hPa 0,0 l/m 0 min 0 min 116 W/m 6,4 km/h (2 Bft) 100,00 %
10.10.2022 12:28 16,4 C 16,7 C 12,2 C 78 % 1015,6 hPa 0,0 l/m 0 min 0 min 125 W/m 12,9 km/h (3 Bft) 97,87 %
10.10.2022 12:30 16,4 C 16,7 C 12,2 C 78 % 1015,6 hPa 0,0 l/m 0 min 0 min 135 W/m 9,7 km/h (2 Bft) 97,83 %
10.10.2022 12:32 16,6 C 16,7 C 12,2 C 78 % 1015,6 hPa 0,0 l/m 0 min 0 min 147 W/m 6,4 km/h (2 Bft) 97,87 %
10.10.2022 12:34 16,6 C 16,7 C 12,2 C 77 % 1015,7 hPa 0,0 l/m 0 min 0 min 159 W/m 6,4 km/h (2 Bft) 95,74 %
10.10.2022 12:36 16,7 C 17,2 C 12,2 C 77 % 1015,6 hPa 0,0 l/m 0 min 0 min 169 W/m 9,7 km/h (2 Bft) 97,87 %
10.10.2022 12:38 16,7 C 17,2 C 12,2 C 77 % 1015,7 hPa 0,0 l/m 0 min 0 min 170 W/m 3,2 km/h (1 Bft) 95,74 %
10.10.2022 12:40 16,8 C 17,2 C 12,8 C 78 % 1015,7 hPa 0,0 l/m 0 min 0 min 170 W/m 9,7 km/h (2 Bft) 97,87 %
10.10.2022 12:42 16,9 C 17,2 C 12,8 C 77 % 1015,6 hPa 0,0 l/m 0 min 0 min 173 W/m 6,4 km/h (2 Bft) 97,83 %
10.10.2022 12:44 16,9 C 17,2 C 12,8 C 77 % 1015,6 hPa 0,0 l/m 0 min 0 min 182 W/m 19,3 km/h (3 Bft) 97,87 %
10.10.2022 12:46 16,9 C 17,2 C 12,8 C 76 % 1015,6 hPa 0,0 l/m 0 min 0 min 185 W/m 9,7 km/h (2 Bft) 97,87 %
10.10.2022 12:48 17,0 C 17,2 C 12,8 C 76 % 1015,6 hPa 0,0 l/m 0 min 0 min 186 W/m 25,7 km/h (4 Bft) 95,74 %
10.10.2022 12:50 17,1 C 17,2 C 12,8 C 76 % 1015,6 hPa 0,0 l/m 0 min 0 min 190 W/m 12,9 km/h (3 Bft) 95,74 %
10.10.2022 12:52 17,1 C 17,2 C 12,8 C 76 % 1015,5 hPa 0,0 l/m 0 min 0 min 199 W/m 16,1 km/h (3 Bft) 100,00 %
10.10.2022 12:54 17,1 C 17,2 C 12,8 C 76 % 1015,6 hPa 0,0 l/m 0 min 0 min 209 W/m 12,9 km/h (3 Bft) 97,83 %
10.10.2022 12:56 17,1 C 17,2 C 12,8 C 76 % 1015,6 hPa 0,0 l/m 0 min 0 min 210 W/m 6,4 km/h (2 Bft) 95,74 %
10.10.2022 12:58 17,1 C 17,2 C 12,8 C 76 % 1015,6 hPa 0,0 l/m 0 min 0 min 209 W/m 9,7 km/h (2 Bft) 97,87 %
10.10.2022 13:00 17,2 C 17,2 C 12,8 C 76 % 1015,7 hPa 0,0 l/m 0 min 0 min 206 W/m 12,9 km/h (3 Bft) 95,74 %
10.10.2022 13:02 17,2 C 17,8 C 12,8 C 76 % 1015,6 hPa 0,0 l/m 0 min 0 min 213 W/m 9,7 km/h (2 Bft) 93,62 %
10.10.2022 13:04 17,3 C 17,8 C 12,8 C 77 % 1015,7 hPa 0,0 l/m 0 min 0 min 218 W/m 9,7 km/h (2 Bft) 95,74 %
10.10.2022 13:06 17,3 C 17,8 C 12,8 C 77 % 1015,7 hPa 0,0 l/m 0 min 0 min 216 W/m 6,4 km/h (2 Bft) 95,74 %
10.10.2022 13:08 17,4 C 17,8 C 12,8 C 76 % 1015,6 hPa 0,0 l/m 0 min 0 min 213 W/m 16,1 km/h (3 Bft) 95,65 %
10.10.2022 13:10 17,5 C 17,8 C 12,8 C 75 % 1015,7 hPa 0,0 l/m 0 min 0 min 210 W/m 12,9 km/h (3 Bft) 95,74 %
10.10.2022 13:12 17,5 C 17,8 C 12,8 C 75 % 1015,7 hPa 0,0 l/m 0 min 0 min 212 W/m 16,1 km/h (3 Bft) 97,87 %
10.10.2022 13:14 17,6 C 17,8 C 12,8 C 75 % 1015,6 hPa 0,0 l/m 0 min 0 min 215 W/m 6,4 km/h (2 Bft) 95,74 %
10.10.2022 13:16 17,6 C 17,8 C 12,8 C 75 % 1015,7 hPa 0,0 l/m 0 min 0 min 194 W/m 6,4 km/h (2 Bft) 97,87 %
10.10.2022 13:18 17,6 C 17,8 C 12,8 C 75 % 1015,7 hPa 0,0 l/m 0 min 0 min 204 W/m 19,3 km/h (3 Bft) 97,87 %
10.10.2022 13:20 17,7 C 17,8 C 12,8 C 75 % 1015,7 hPa 0,0 l/m 0 min 0 min 202 W/m 16,1 km/h (3 Bft) 97,83 %
10.10.2022 13:22 17,7 C 17,8 C 13,3 C 74 % 1015,7 hPa 0,0 l/m 0 min 0 min 211 W/m 16,1 km/h (3 Bft) 93,62 %
10.10.2022 13:24 17,7 C 17,8 C 13,3 C 74 % 1015,7 hPa 0,0 l/m 0 min 0 min 235 W/m 12,9 km/h (3 Bft) 97,87 %
10.10.2022 13:26 17,8 C 17,8 C 13,3 C 74 % 1015,7 hPa 0,0 l/m 0 min 0 min 242 W/m 9,7 km/h (2 Bft) 97,87 %
10.10.2022 13:28 17,8 C 17,8 C 13,3 C 74 % 1015,7 hPa 0,0 l/m 0 min 0 min 252 W/m 19,3 km/h (3 Bft) 93,62 %
10.10.2022 13:30 17,8 C 17,8 C 13,3 C 74 % 1015,6 hPa 0,0 l/m 0 min 0 min 251 W/m 19,3 km/h (3 Bft) 97,83 %
10.10.2022 13:32 17,8 C 17,8 C 13,3 C 74 % 1015,7 hPa 0,0 l/m 0 min 0 min 247 W/m 22,5 km/h (4 Bft) 97,87 %
10.10.2022 13:34 17,9 C 18,3 C 13,3 C 74 % 1015,7 hPa 0,0 l/m 0 min 0 min 235 W/m 12,9 km/h (3 Bft) 97,87 %
10.10.2022 13:36 17,9 C 18,3 C 13,3 C 74 % 1015,6 hPa 0,0 l/m 0 min 0 min 225 W/m 9,7 km/h (2 Bft) 97,87 %
10.10.2022 13:38 17,9 C 17,8 C 13,3 C 74 % 1015,6 hPa 0,0 l/m 0 min 0 min 217 W/m 22,5 km/h (4 Bft) 100,00 %
10.10.2022 13:40 18,0 C 17,8 C 13,3 C 74 % 1015,6 hPa 0,0 l/m 0 min 0 min 213 W/m 16,1 km/h (3 Bft) 100,00 %
10.10.2022 13:42 18,0 C 17,8 C 13,3 C 74 % 1015,6 hPa 0,0 l/m 0 min 0 min 214 W/m 16,1 km/h (3 Bft) 100,00 %
10.10.2022 13:44 18,0 C 17,8 C 13,3 C 74 % 1015,6 hPa 0,0 l/m 0 min 0 min 216 W/m 19,3 km/h (3 Bft) 100,00 %
10.10.2022 13:46 18,0 C 17,8 C 13,3 C 73 % 1015,7 hPa 0,0 l/m 0 min 0 min 218 W/m 19,3 km/h (3 Bft) 97,87 %
10.10.2022 13:48 17,9 C 17,8 C 13,3 C 73 % 1015,7 hPa 0,0 l/m 0 min 0 min 215 W/m 12,9 km/h (3 Bft) 97,87 %
10.10.2022 13:50 17,9 C 17,8 C 13,3 C 74 % 1015,7 hPa 0,0 l/m 0 min 0 min 216 W/m 6,4 km/h (2 Bft) 100,00 %
10.10.2022 13:52 17,9 C 17,8 C 13,3 C 74 % 1015,6 hPa 0,0 l/m 0 min 0 min 219 W/m 12,9 km/h (3 Bft) 97,87 %
10.10.2022 13:54 17,9 C 17,8 C 13,3 C 74 % 1015,6 hPa 0,0 l/m 0 min 0 min 224 W/m 12,9 km/h (3 Bft) 97,87 %
10.10.2022 13:56 17,9 C 17,8 C 13,3 C 74 % 1015,6 hPa 0,0 l/m 0 min 0 min 233 W/m 16,1 km/h (3 Bft) 100,00 %
10.10.2022 13:58 17,9 C 17,8 C 13,3 C 74 % 1015,7 hPa 0,0 l/m 0 min 0 min 245 W/m 9,7 km/h (2 Bft) 97,87 %
10.10.2022 14:00 17,9 C 17,8 C 13,3 C 74 % 1015,6 hPa 0,0 l/m 0 min 0 min 247 W/m 9,7 km/h (2 Bft) 100,00 %
10.10.2022 14:02 17,9 C 18,3 C 13,3 C 74 % 1015,7 hPa 0,0 l/m 2 min 0 min 260 W/m 16,1 km/h (3 Bft) 97,87 %
10.10.2022 14:04 18,0 C 18,3 C 13,3 C 74 % 1015,7 hPa 0,0 l/m 2 min 0 min 267 W/m 12,9 km/h (3 Bft) 100,00 %
10.10.2022 14:06 18,0 C 18,3 C 13,3 C 74 % 1015,7 hPa 0,0 l/m 2 min 0 min 282 W/m 12,9 km/h (3 Bft) 100,00 %
10.10.2022 14:08 18,0 C 18,3 C 13,3 C 74 % 1015,7 hPa 0,0 l/m 2 min 0 min 285 W/m 16,1 km/h (3 Bft) 100,00 %
10.10.2022 14:10 18,1 C 18,3 C 13,3 C 74 % 1015,7 hPa 0,0 l/m 2 min 0 min 263 W/m 19,3 km/h (3 Bft) 100,00 %
10.10.2022 14:12 18,1 C 18,3 C 13,3 C 74 % 1015,6 hPa 0,0 l/m 0 min 0 min 254 W/m 12,9 km/h (3 Bft) 100,00 %
10.10.2022 14:14 18,1 C 18,3 C 13,3 C 74 % 1015,7 hPa 0,0 l/m 2 min 0 min 270 W/m 12,9 km/h (3 Bft) 100,00 %
10.10.2022 14:16 18,1 C 18,3 C 13,3 C 74 % 1015,6 hPa 0,0 l/m 0 min 0 min 252 W/m 19,3 km/h (3 Bft) 100,00 %
10.10.2022 14:18 18,1 C 18,3 C 13,3 C 73 % 1015,6 hPa 0,0 l/m 2 min 0 min 254 W/m 16,1 km/h (3 Bft) 97,87 %
10.10.2022 14:20 18,1 C 18,3 C 13,3 C 74 % 1015,6 hPa 0,0 l/m 0 min 0 min 235 W/m 9,7 km/h (2 Bft) 100,00 %
10.10.2022 14:22 18,1 C 18,3 C 13,3 C 73 % 1015,7 hPa 0,0 l/m 0 min 0 min 234 W/m 12,9 km/h (3 Bft) 100,00 %
10.10.2022 14:24 18,1 C 18,3 C 13,3 C 73 % 1015,6 hPa 0,0 l/m 2 min 0 min 261 W/m 16,1 km/h (3 Bft) 100,00 %
10.10.2022 14:26 18,2 C 18,3 C 13,3 C 73 % 1015,7 hPa 0,0 l/m 0 min 0 min 242 W/m 6,4 km/h (2 Bft) 97,87 %
10.10.2022 14:28 18,2 C 18,3 C 13,3 C 74 % 1015,6 hPa 0,0 l/m 0 min 0 min 248 W/m 9,7 km/h (2 Bft) 100,00 %
10.10.2022 14:30 18,2 C 18,3 C 13,3 C 74 % 1015,6 hPa 0,0 l/m 2 min 0 min 256 W/m 25,7 km/h (4 Bft) 97,87 %
10.10.2022 14:32 18,2 C 18,3 C 13,3 C 73 % 1015,7 hPa 0,0 l/m 2 min 0 min 270 W/m 19,3 km/h (3 Bft) 95,65 %
10.10.2022 14:34 18,2 C 18,3 C 13,9 C 74 % 1015,7 hPa 0,0 l/m 2 min 0 min 269 W/m 12,9 km/h (3 Bft) 97,87 %
10.10.2022 14:36 18,2 C 18,3 C 13,9 C 74 % 1015,7 hPa 0,0 l/m 2 min 0 min 266 W/m 9,7 km/h (2 Bft) 97,87 %
10.10.2022 14:38 18,3 C 18,9 C 13,9 C 74 % 1015,7 hPa 0,0 l/m 2 min 0 min 271 W/m 6,4 km/h (2 Bft) 100,00 %
10.10.2022 14:40 18,3 C 18,9 C 13,9 C 74 % 1015,6 hPa 0,0 l/m 2 min 0 min 279 W/m 9,7 km/h (2 Bft) 100,00 %
10.10.2022 14:42 18,4 C 18,9 C 13,9 C 74 % 1015,7 hPa 0,0 l/m 2 min 0 min 648 W/m 19,3 km/h (3 Bft) 97,83 %
10.10.2022 14:44 18,6 C 18,9 C 13,9 C 73 % 1015,6 hPa 0,0 l/m 2 min 0 min 572 W/m 16,1 km/h (3 Bft) 100,00 %
10.10.2022 14:46 18,6 C 18,9 C 13,9 C 73 % 1015,6 hPa 0,0 l/m 2 min 0 min 402 W/m 12,9 km/h (3 Bft) 97,87 %
10.10.2022 14:48 18,7 C 18,9 C 13,9 C 73 % 1015,5 hPa 0,0 l/m 2 min 0 min 420 W/m 16,1 km/h (3 Bft) 95,74 %
10.10.2022 14:50 18,7 C 18,9 C 13,9 C 73 % 1015,6 hPa 0,0 l/m 2 min 0 min 420 W/m 16,1 km/h (3 Bft) 95,74 %
10.10.2022 14:52 18,7 C 18,9 C 13,9 C 72 % 1015,5 hPa 0,0 l/m 2 min 0 min 420 W/m 9,7 km/h (2 Bft) 98,00 %
10.10.2022 14:54 18,8 C 18,9 C 13,9 C 72 % 1015,5 hPa 0,0 l/m 2 min 0 min 427 W/m 12,9 km/h (3 Bft) 95,65 %
10.10.2022 14:56 18,8 C 18,9 C 13,9 C 72 % 1015,6 hPa 0,0 l/m 2 min 0 min 376 W/m 9,7 km/h (2 Bft) 93,62 %
10.10.2022 14:58 18,8 C 18,9 C 13,9 C 72 % 1015,6 hPa 0,0 l/m 0 min 0 min 210 W/m 9,7 km/h (2 Bft) 95,74 %
10.10.2022 15:00 18,8 C 18,9 C 13,9 C 72 % 1015,6 hPa 0,0 l/m 2 min 0 min 252 W/m 12,9 km/h (3 Bft) 95,74 %
10.10.2022 15:02 18,8 C 18,3 C 13,9 C 72 % 1015,6 hPa 0,0 l/m 2 min 0 min 234 W/m 6,4 km/h (2 Bft) 93,62 %
10.10.2022 15:04 18,8 C 18,3 C 13,9 C 73 % 1015,6 hPa 0,0 l/m 0 min 0 min 214 W/m 6,4 km/h (2 Bft) 95,74 %
10.10.2022 15:06 18,7 C 18,3 C 13,9 C 72 % 1015,7 hPa 0,0 l/m 0 min 0 min 172 W/m 12,9 km/h (3 Bft) 89,13 %
10.10.2022 15:08 18,7 C 18,3 C 13,9 C 72 % 1015,7 hPa 0,0 l/m 0 min 0 min 174 W/m 6,4 km/h (2 Bft) 95,74 %
10.10.2022 15:10 18,6 C 18,3 C 13,9 C 72 % 1015,7 hPa 0,0 l/m 2 min 0 min 252 W/m 16,1 km/h (3 Bft) 93,62 %
10.10.2022 15:12 18,6 C 18,3 C 13,9 C 72 % 1015,7 hPa 0,0 l/m 2 min 0 min 421 W/m 12,9 km/h (3 Bft) 91,49 %
10.10.2022 15:14 18,7 C 18,3 C 13,9 C 73 % 1015,8 hPa 0,0 l/m 2 min 0 min 462 W/m 6,4 km/h (2 Bft) 95,74 %
10.10.2022 15:16 18,7 C 18,9 C 13,9 C 73 % 1015,7 hPa 0,0 l/m 2 min 0 min 484 W/m 12,9 km/h (3 Bft) 91,49 %
10.10.2022 15:18 18,8 C 18,9 C 13,9 C 74 % 1015,7 hPa 0,0 l/m 2 min 0 min 492 W/m 3,2 km/h (1 Bft) 91,30 %
10.10.2022 15:20 18,8 C 18,9 C 13,9 C 73 % 1015,8 hPa 0,0 l/m 2 min 0 min 490 W/m 19,3 km/h (3 Bft) 95,74 %
10.10.2022 15:22 18,8 C 18,3 C 13,9 C 72 % 1015,8 hPa 0,0 l/m 2 min 0 min 491 W/m 12,9 km/h (3 Bft) 93,62 %
10.10.2022 15:24 18,8 C 18,9 C 13,9 C 73 % 1015,8 hPa 0,0 l/m 2 min 0 min 427 W/m 6,4 km/h (2 Bft) 93,62 %
10.10.2022 15:26 18,9 C 18,3 C 13,9 C 73 % 1015,9 hPa 0,0 l/m 2 min 0 min 270 W/m 9,7 km/h (2 Bft) 95,74 %
10.10.2022 15:28 18,8 C 18,3 C 13,9 C 72 % 1015,9 hPa 0,0 l/m 2 min 0 min 281 W/m 12,9 km/h (3 Bft) 93,62 %
10.10.2022 15:30 18,8 C 18,3 C 13,3 C 72 % 1015,8 hPa 0,0 l/m 0 min 0 min 187 W/m 16,1 km/h (3 Bft) 93,48 %
10.10.2022 15:32 18,7 C 18,3 C 13,3 C 72 % 1015,9 hPa 0,0 l/m 0 min 0 min 205 W/m 6,4 km/h (2 Bft) 93,62 %
10.10.2022 15:34 18,7 C 18,3 C 13,3 C 72 % 1015,8 hPa 0,0 l/m 2 min 0 min 268 W/m 6,4 km/h (2 Bft) 95,74 %
10.10.2022 15:36 18,7 C 18,3 C 13,3 C 72 % 1015,8 hPa 0,0 l/m 2 min 0 min 232 W/m 6,4 km/h (2 Bft) 93,62 %
10.10.2022 15:38 18,7 C 18,3 C 13,9 C 72 % 1015,8 hPa 0,0 l/m 2 min 0 min 242 W/m 6,4 km/h (2 Bft) 95,74 %
10.10.2022 15:40 18,6 C 18,3 C 13,9 C 72 % 1015,9 hPa 0,0 l/m 2 min 0 min 240 W/m 12,9 km/h (3 Bft) 91,49 %
10.10.2022 15:42 18,6 C 18,3 C 13,9 C 72 % 1015,9 hPa 0,0 l/m 2 min 0 min 225 W/m 3,2 km/h (1 Bft) 95,65 %
10.10.2022 15:44 18,6 C 18,3 C 13,9 C 72 % 1015,9 hPa 0,0 l/m 2 min 0 min 218 W/m 9,7 km/h (2 Bft) 91,49 %
10.10.2022 15:46 18,6 C 18,3 C 13,9 C 72 % 1015,9 hPa 0,0 l/m 2 min 0 min 219 W/m 6,4 km/h (2 Bft) 95,74 %
10.10.2022 15:48 18,6 C 18,3 C 13,9 C 73 % 1015,8 hPa 0,0 l/m 2 min 0 min 216 W/m 9,7 km/h (2 Bft) 100,00 %
10.10.2022 15:50 18,6 C 18,3 C 13,9 C 72 % 1015,8 hPa 0,0 l/m 2 min 0 min 218 W/m 12,9 km/h (3 Bft) 97,87 %
10.10.2022 15:52 18,6 C 18,3 C 13,9 C 72 % 1015,8 hPa 0,0 l/m 2 min 0 min 203 W/m 12,9 km/h (3 Bft) 97,87 %
10.10.2022 15:54 18,6 C 18,3 C 13,3 C 72 % 1015,8 hPa 0,0 l/m 0 min 0 min 164 W/m 6,4 km/h (2 Bft) 97,83 %
10.10.2022 15:56 18,5 C 18,3 C 13,3 C 73 % 1015,8 hPa 0,0 l/m 0 min 0 min 156 W/m 3,2 km/h (1 Bft) 97,87 %
10.10.2022 15:58 18,5 C 18,3 C 13,3 C 73 % 1015,9 hPa 0,0 l/m 0 min 0 min 159 W/m 6,4 km/h (2 Bft) 97,87 %
10.10.2022 16:00 18,4 C 18,3 C 13,3 C 73 % 1016,0 hPa 0,0 l/m 0 min 0 min 159 W/m 3,2 km/h (1 Bft) 100,00 %
10.10.2022 16:02 18,4 C 17,8 C 13,3 C 73 % 1016,0 hPa 0,0 l/m 0 min 0 min 148 W/m 12,9 km/h (3 Bft) 100,00 %
10.10.2022 16:04 18,4 C 17,8 C 13,3 C 73 % 1016,0 hPa 0,0 l/m 0 min 0 min 132 W/m 6,4 km/h (2 Bft) 100,00 %
10.10.2022 16:06 18,3 C 17,8 C 13,3 C 73 % 1016,1 hPa 0,0 l/m 0 min 0 min 127 W/m 6,4 km/h (2 Bft) 95,65 %
10.10.2022 16:08 18,3 C 17,8 C 13,3 C 73 % 1016,1 hPa 0,0 l/m 0 min 0 min 125 W/m 6,4 km/h (2 Bft) 100,00 %
10.10.2022 16:10 18,3 C 17,8 C 13,3 C 73 % 1016,1 hPa 0,0 l/m 0 min 0 min 117 W/m 9,7 km/h (2 Bft) 100,00 %
10.10.2022 16:12 18,3 C 17,2 C 13,3 C 73 % 1016,1 hPa 0,0 l/m 0 min 0 min 110 W/m 6,4 km/h (2 Bft) 100,00 %
10.10.2022 16:14 18,2 C 17,2 C 13,3 C 74 % 1016,2 hPa 0,0 l/m 0 min 0 min 111 W/m 6,4 km/h (2 Bft) 100,00 %
10.10.2022 16:16 18,2 C 17,2 C 13,3 C 73 % 1016,2 hPa 0,0 l/m 0 min 0 min 126 W/m 6,4 km/h (2 Bft) 100,00 %
10.10.2022 16:18 18,2 C 17,8 C 13,3 C 73 % 1016,3 hPa 0,0 l/m 0 min 0 min 134 W/m 12,9 km/h (3 Bft) 97,14 %
10.10.2022 16:20 18,1 C 17,2 C 13,3 C 73 % 1016,3 hPa 0,0 l/m 0 min 0 min 124 W/m 16,1 km/h (3 Bft) 100,00 %
10.10.2022 16:22 18,1 C 17,2 C 13,3 C 73 % 1016,4 hPa 0,0 l/m 0 min 0 min 113 W/m 6,4 km/h (2 Bft) 97,87 %
10.10.2022 16:24 18,1 C 17,2 C 13,3 C 73 % 1016,5 hPa 0,0 l/m 0 min 0 min 94 W/m 3,2 km/h (1 Bft) 100,00 %
10.10.2022 16:26 18,1 C 17,2 C 13,3 C 73 % 1016,5 hPa 0,0 l/m 0 min 0 min 77 W/m 6,4 km/h (2 Bft) 100,00 %
10.10.2022 16:28 18,1 C 17,2 C 13,3 C 74 % 1016,6 hPa 0,0 l/m 0 min 0 min 71 W/m 3,2 km/h (1 Bft) 100,00 %
10.10.2022 16:30 18,0 C 17,2 C 13,3 C 74 % 1016,6 hPa 0,0 l/m 0 min 0 min 70 W/m 9,7 km/h (2 Bft) 100,00 %
10.10.2022 16:32 17,9 C 17,2 C 13,3 C 74 % 1016,6 hPa 0,0 l/m 0 min 0 min 65 W/m 3,2 km/h (1 Bft) 100,00 %
10.10.2022 16:34 17,9 C 17,2 C 12,8 C 74 % 1016,6 hPa 0,0 l/m 0 min 0 min 55 W/m 3,2 km/h (1 Bft) 100,00 %
10.10.2022 16:36 17,9 C 16,7 C 12,8 C 74 % 1016,6 hPa 0,0 l/m 0 min 0 min 46 W/m 6,4 km/h (2 Bft) 100,00 %
10.10.2022 16:38 17,8 C 16,7 C 12,8 C 74 % 1016,7 hPa 0,0 l/m 0 min 0 min 37 W/m 6,4 km/h (2 Bft) 97,14 %
10.10.2022 16:40 17,8 C 16,7 C 12,8 C 75 % 1016,7 hPa 0,0 l/m 0 min 0 min 30 W/m 3,2 km/h (1 Bft) 100,00 %
10.10.2022 16:42 17,8 C 16,7 C 12,8 C 75 % 1016,6 hPa 0,0 l/m 0 min 2 min 28 W/m 6,4 km/h (2 Bft) 100,00 %
10.10.2022 16:44 17,8 C 16,7 C 12,8 C 76 % 1016,7 hPa 0,0 l/m 0 min 2 min 25 W/m 6,4 km/h (2 Bft) 100,00 %
10.10.2022 16:46 17,7 C 16,7 C 12,2 C 76 % 1016,7 hPa 0,0 l/m 0 min 0 min 22 W/m 12,9 km/h (3 Bft) 95,74 %
10.10.2022 16:48 17,6 C 16,7 C 12,2 C 77 % 1016,7 hPa 0,0 l/m 0 min 0 min 21 W/m 6,4 km/h (2 Bft) 100,00 %
10.10.2022 16:50 17,6 C 16,1 C 12,2 C 77 % 1016,8 hPa 0,0 l/m 0 min 2 min 27 W/m 6,4 km/h (2 Bft) 100,00 %
10.10.2022 16:52 17,5 C 16,1 C 12,2 C 77 % 1016,8 hPa 0,0 l/m 0 min 2 min 39 W/m 3,2 km/h (1 Bft) 97,87 %
10.10.2022 16:54 17,5 C 16,1 C 12,2 C 78 % 1016,8 hPa 0,0 l/m 0 min 2 min 50 W/m 6,4 km/h (2 Bft) 100,00 %
10.10.2022 16:56 17,4 C 16,1 C 12,2 C 78 % 1016,9 hPa 0,0 l/m 0 min 0 min 56 W/m 6,4 km/h (2 Bft) 100,00 %
10.10.2022 16:58 17,4 C 16,1 C 12,2 C 78 % 1016,9 hPa 0,0 l/m 0 min 0 min 67 W/m 9,7 km/h (2 Bft) 100,00 %
10.10.2022 17:00 17,3 C 16,7 C 12,2 C 78 % 1016,9 hPa 0,0 l/m 0 min 0 min 84 W/m 9,7 km/h (2 Bft) 100,00 %
10.10.2022 17:02 17,3 C 16,7 C 12,2 C 78 % 1016,9 hPa 0,0 l/m 0 min 0 min 96 W/m 6,4 km/h (2 Bft) 100,00 %
10.10.2022 17:04 17,2 C 16,7 C 12,2 C 78 % 1016,9 hPa 0,0 l/m 0 min 0 min 98 W/m 6,4 km/h (2 Bft) 100,00 %
10.10.2022 17:06 17,2 C 16,7 C 12,2 C 78 % 1016,9 hPa 0,0 l/m 0 min 0 min 92 W/m 6,4 km/h (2 Bft) 100,00 %
10.10.2022 17:08 17,2 C 16,7 C 12,2 C 78 % 1016,9 hPa 0,0 l/m 0 min 0 min 81 W/m 6,4 km/h (2 Bft) 100,00 %
10.10.2022 17:10 17,2 C 16,7 C 12,2 C 78 % 1016,9 hPa 0,0 l/m 0 min 0 min 76 W/m 9,7 km/h (2 Bft) 97,87 %
10.10.2022 17:12 17,1 C 16,7 C 12,2 C 77 % 1016,9 hPa 0,0 l/m 0 min 0 min 70 W/m 6,4 km/h (2 Bft) 95,65 %
10.10.2022 17:14 17,1 C 16,7 C 12,2 C 77 % 1017,0 hPa 0,0 l/m 0 min 0 min 63 W/m 9,7 km/h (2 Bft) 100,00 %
10.10.2022 17:16 17,1 C 16,1 C 12,2 C 77 % 1017,0 hPa 0,0 l/m 0 min 0 min 58 W/m 9,7 km/h (2 Bft) 95,74 %
10.10.2022 17:18 17,1 C 16,1 C 12,2 C 77 % 1017,0 hPa 0,0 l/m 0 min 0 min 52 W/m 6,4 km/h (2 Bft) 97,87 %
10.10.2022 17:20 17,1 C 16,1 C 12,2 C 77 % 1017,1 hPa 0,0 l/m 0 min 0 min 51 W/m 3,2 km/h (1 Bft) 95,74 %
10.10.2022 17:22 17,1 C 16,1 C 12,2 C 77 % 1017,2 hPa 0,0 l/m 0 min 0 min 57 W/m 6,4 km/h (2 Bft) 97,87 %
10.10.2022 17:24 17,1 C 16,1 C 12,2 C 77 % 1017,1 hPa 0,0 l/m 0 min 0 min 67 W/m 9,7 km/h (2 Bft) 95,65 %
10.10.2022 17:26 17,1 C 16,1 C 12,2 C 77 % 1017,2 hPa 0,0 l/m 0 min 0 min 67 W/m 12,9 km/h (3 Bft) 97,87 %
10.10.2022 17:28 17,1 C 16,1 C 12,2 C 77 % 1017,2 hPa 0,0 l/m 0 min 0 min 73 W/m 6,4 km/h (2 Bft) 97,87 %
10.10.2022 17:30 17,0 C 16,1 C 12,2 C 77 % 1017,3 hPa 0,0 l/m 0 min 0 min 82 W/m 6,4 km/h (2 Bft) 97,87 %
10.10.2022 17:32 17,0 C 16,1 C 12,2 C 78 % 1017,3 hPa 0,0 l/m 0 min 0 min 76 W/m 9,7 km/h (2 Bft) 95,74 %
10.10.2022 17:34 17,0 C 16,1 C 12,2 C 78 % 1017,4 hPa 0,0 l/m 0 min 0 min 54 W/m 9,7 km/h (2 Bft) 95,74 %
10.10.2022 17:36 17,0 C 16,1 C 12,2 C 78 % 1017,4 hPa 0,0 l/m 0 min 0 min 42 W/m 16,1 km/h (3 Bft) 93,10 %
10.10.2022 17:38 17,0 C 16,1 C 12,2 C 78 % 1017,5 hPa 0,0 l/m 0 min 0 min 39 W/m 19,3 km/h (3 Bft) 94,29 %
10.10.2022 17:40 16,9 C 16,1 C 12,2 C 78 % 1017,6 hPa 0,0 l/m 0 min 0 min 34 W/m 16,1 km/h (3 Bft) 97,87 %
10.10.2022 17:42 16,9 C 16,1 C 12,2 C 78 % 1017,5 hPa 0,0 l/m 0 min 0 min 34 W/m 12,9 km/h (3 Bft) 95,74 %
10.10.2022 17:44 16,9 C 16,1 C 12,2 C 78 % 1017,6 hPa 0,0 l/m 0 min 0 min 37 W/m 16,1 km/h (3 Bft) 95,74 %
10.10.2022 17:46 16,9 C 16,1 C 12,2 C 78 % 1017,6 hPa 0,0 l/m 0 min 0 min 35 W/m 9,7 km/h (2 Bft) 93,62 %
10.10.2022 17:48 16,9 C 16,1 C 12,2 C 78 % 1017,7 hPa 0,0 l/m 0 min 0 min 32 W/m 9,7 km/h (2 Bft) 93,48 %
10.10.2022 17:50 16,9 C 16,1 C 11,7 C 78 % 1017,7 hPa 0,0 l/m 0 min 0 min 29 W/m 12,9 km/h (3 Bft) 95,74 %
10.10.2022 17:52 16,8 C 15,6 C 11,7 C 79 % 1017,8 hPa 0,0 l/m 0 min 0 min 27 W/m 12,9 km/h (3 Bft) 95,74 %
10.10.2022 17:54 16,8 C 15,6 C 11,7 C 79 % 1017,8 hPa 0,0 l/m 0 min 0 min 22 W/m 9,7 km/h (2 Bft) 91,49 %
10.10.2022 17:56 16,8 C 15,6 C 11,7 C 79 % 1017,8 hPa 0,0 l/m 0 min 0 min 18 W/m 19,3 km/h (3 Bft) 89,36 %
10.10.2022 17:58 16,7 C 15,6 C 11,7 C 79 % 1017,9 hPa 0,0 l/m 0 min 0 min 17 W/m 6,4 km/h (2 Bft) 95,74 %
10.10.2022 18:00 16,7 C 15,6 C 11,7 C 79 % 1017,9 hPa 0,0 l/m 0 min 0 min 19 W/m 6,4 km/h (2 Bft) 93,48 %
10.10.2022 18:02 16,7 C 15,6 C 11,7 C 79 % 1017,9 hPa 0,0 l/m 0 min 0 min 23 W/m 12,9 km/h (3 Bft) 95,74 %
10.10.2022 18:04 16,7 C 15,6 C 11,7 C 80 % 1017,9 hPa 0,0 l/m 0 min 0 min 26 W/m 12,9 km/h (3 Bft) 97,87 %
10.10.2022 18:08 16,6 C 15,6 C 11,7 C 80 % 1018,0 hPa 0,0 l/m 0 min 0 min 34 W/m 16,1 km/h (3 Bft) 95,05 %
10.10.2022 18:10 16,6 C 15,6 C 11,7 C 81 % 1018,0 hPa 0,0 l/m 0 min 0 min 33 W/m 19,3 km/h (3 Bft) 97,87 %
10.10.2022 18:12 16,6 C 15,6 C 11,7 C 81 % 1018,0 hPa 0,0 l/m 0 min 0 min 33 W/m 12,9 km/h (3 Bft) 97,87 %
10.10.2022 18:14 16,6 C 15,6 C 11,7 C 81 % 1018,1 hPa 0,0 l/m 0 min 0 min 39 W/m 9,7 km/h (2 Bft) 97,87 %
10.10.2022 18:16 16,6 C 15,6 C 11,7 C 81 % 1018,1 hPa 0,0 l/m 0 min 0 min 37 W/m 12,9 km/h (3 Bft) 97,87 %
10.10.2022 18:18 16,5 C 15,6 C 11,7 C 81 % 1018,2 hPa 0,0 l/m 0 min 0 min 31 W/m 9,7 km/h (2 Bft) 97,83 %
10.10.2022 18:20 16,5 C 15,6 C 11,7 C 81 % 1018,3 hPa 0,0 l/m 0 min 0 min 22 W/m 9,7 km/h (2 Bft) 97,87 %
10.10.2022 18:22 16,4 C 15,6 C 11,7 C 82 % 1018,4 hPa 0,0 l/m 0 min 0 min 15 W/m 16,1 km/h (3 Bft) 97,87 %
10.10.2022 18:24 16,4 C 15,6 C 11,7 C 82 % 1018,4 hPa 0,0 l/m 0 min 0 min 10 W/m 25,7 km/h (4 Bft) 97,87 %
10.10.2022 18:26 16,3 C 15,0 C 11,7 C 82 % 1018,5 hPa 0,0 l/m 0 min 0 min 7 W/m 16,1 km/h (3 Bft) 95,74 %
10.10.2022 18:28 16,3 C 15,0 C 11,7 C 82 % 1018,6 hPa 0,0 l/m 0 min 0 min 5 W/m 22,5 km/h (4 Bft) 97,87 %
10.10.2022 18:30 16,3 C 15,0 C 11,1 C 83 % 1018,6 hPa 0,0 l/m 0 min 0 min 4 W/m 9,7 km/h (2 Bft) 97,83 %
10.10.2022 18:32 16,2 C 15,0 C 11,1 C 83 % 1018,6 hPa 0,0 l/m 0 min 0 min 0 W/m 16,1 km/h (3 Bft) 93,62 %
10.10.2022 18:34 16,2 C 15,0 C 11,1 C 84 % 1018,6 hPa 0,0 l/m 0 min 0 min 0 W/m 16,1 km/h (3 Bft) 97,87 %
10.10.2022 18:36 16,1 C 15,0 C 11,1 C 84 % 1018,7 hPa 0,0 l/m 0 min 0 min 0 W/m 12,9 km/h (3 Bft) 97,87 %
10.10.2022 18:38 16,0 C 15,0 C 11,1 C 84 % 1018,6 hPa 0,0 l/m 0 min 0 min 0 W/m 6,4 km/h (2 Bft) 97,87 %
10.10.2022 18:40 15,9 C 15,0 C 11,1 C 84 % 1018,7 hPa 0,0 l/m 0 min 0 min 2 W/m 16,1 km/h (3 Bft) 97,87 %
10.10.2022 18:42 15,8 C 14,4 C 11,1 C 84 % 1018,8 hPa 0,0 l/m 0 min 0 min 5 W/m 9,7 km/h (2 Bft) 97,83 %
10.10.2022 18:44 15,8 C 14,4 C 11,1 C 84 % 1018,7 hPa 0,0 l/m 0 min 0 min 5 W/m 9,7 km/h (2 Bft) 97,87 %
10.10.2022 18:46 15,7 C 14,4 C 11,1 C 84 % 1018,7 hPa 0,0 l/m 0 min 0 min 5 W/m 9,7 km/h (2 Bft) 97,87 %
10.10.2022 18:48 15,7 C 14,4 C 11,1 C 84 % 1018,8 hPa 0,0 l/m 0 min 0 min 2 W/m 16,1 km/h (3 Bft) 97,87 %
10.10.2022 18:50 15,6 C 14,4 C 11,1 C 85 % 1018,9 hPa 0,0 l/m 0 min 0 min 0 W/m 19,3 km/h (3 Bft) 97,87 %
10.10.2022 18:52 15,6 C 14,4 C 10,6 C 85 % 1018,9 hPa 0,0 l/m 0 min 0 min 0 W/m 19,3 km/h (3 Bft) 100,00 %
10.10.2022 18:54 15,5 C 14,4 C 10,6 C 85 % 1018,9 hPa 0,0 l/m 0 min 0 min 0 W/m 32,2 km/h (5 Bft) 97,83 %
10.10.2022 18:56 15,4 C 14,4 C 10,6 C 85 % 1019,0 hPa 0,0 l/m 0 min 0 min 0 W/m 22,5 km/h (4 Bft) 100,00 %
10.10.2022 18:58 15,4 C 14,4 C 10,6 C 85 % 1019,0 hPa 0,0 l/m 0 min 0 min 0 W/m 19,3 km/h (3 Bft) 100,00 %
10.10.2022 19:00 15,3 C 14,4 C 10,6 C 86 % 1019,0 hPa 0,0 l/m 0 min 0 min 0 W/m 16,1 km/h (3 Bft) 100,00 %
10.10.2022 19:02 15,2 C 14,4 C 10,6 C 86 % 1019,1 hPa 0,0 l/m 0 min 0 min 0 W/m 22,5 km/h (4 Bft) 100,00 %
10.10.2022 19:04 15,2 C 13,9 C 10,6 C 87 % 1019,2 hPa 0,0 l/m 0 min 0 min 0 W/m 19,3 km/h (3 Bft) 100,00 %
10.10.2022 19:06 15,2 C 13,9 C 10,6 C 87 % 1019,2 hPa 0,0 l/m 0 min 0 min 0 W/m 22,5 km/h (4 Bft) 100,00 %
10.10.2022 19:08 15,1 C 13,9 C 10,6 C 87 % 1019,3 hPa 0,0 l/m 0 min 0 min 0 W/m 19,3 km/h (3 Bft) 100,00 %
10.10.2022 19:10 15,1 C 13,9 C 10,6 C 87 % 1019,4 hPa 0,0 l/m 0 min 0 min 0 W/m 19,3 km/h (3 Bft) 100,00 %
10.10.2022 19:12 15,1 C 13,9 C 10,6 C 87 % 1019,4 hPa 0,0 l/m 0 min 0 min 0 W/m 22,5 km/h (4 Bft) 93,62 %
10.10.2022 19:14 15,0 C 13,9 C 10,6 C 88 % 1019,6 hPa 0,0 l/m 0 min 0 min 0 W/m 22,5 km/h (4 Bft) 90,00 %
10.10.2022 19:16 14,9 C 13,9 C 10,6 C 88 % 1019,5 hPa 0,0 l/m 0 min 0 min 0 W/m 29,0 km/h (5 Bft) 100,00 %
10.10.2022 19:18 14,9 C 13,9 C 10,6 C 88 % 1019,5 hPa 0,0 l/m 0 min 0 min 0 W/m 29,0 km/h (5 Bft) 95,74 %
10.10.2022 19:20 14,8 C 13,9 C 10,0 C 88 % 1019,6 hPa 0,0 l/m 0 min 0 min 0 W/m 25,7 km/h (4 Bft) 97,87 %
10.10.2022 19:22 14,7 C 13,9 C 10,0 C 88 % 1019,6 hPa 0,0 l/m 0 min 0 min 0 W/m 29,0 km/h (5 Bft) 97,87 %
10.10.2022 19:24 14,6 C 13,3 C 10,0 C 88 % 1019,7 hPa 0,0 l/m 0 min 0 min 0 W/m 29,0 km/h (5 Bft) 100,00 %
10.10.2022 19:26 14,5 C 13,3 C 10,0 C 88 % 1019,7 hPa 0,0 l/m 0 min 0 min 0 W/m 22,5 km/h (4 Bft) 95,74 %
10.10.2022 19:28 14,4 C 13,3 C 10,0 C 88 % 1019,7 hPa 0,0 l/m 0 min 0 min 0 W/m 25,7 km/h (4 Bft) 100,00 %
10.10.2022 19:30 14,3 C 13,3 C 10,0 C 88 % 1019,8 hPa 0,0 l/m 0 min 0 min 0 W/m 19,3 km/h (3 Bft) 93,62 %
10.10.2022 19:32 14,3 C 13,3 C 10,0 C 88 % 1019,9 hPa 0,0 l/m 0 min 0 min 0 W/m 12,9 km/h (3 Bft) 97,87 %
10.10.2022 19:34 14,3 C 13,3 C 10,0 C 88 % 1019,9 hPa 0,0 l/m 0 min 0 min 0 W/m 19,3 km/h (3 Bft) 95,74 %
10.10.2022 19:36 14,3 C 13,3 C 10,0 C 88 % 1020,0 hPa 0,0 l/m 0 min 0 min 0 W/m 16,1 km/h (3 Bft) 93,62 %
10.10.2022 19:38 14,3 C 13,3 C 9,4 C 89 % 1020,1 hPa 0,0 l/m 0 min 0 min 0 W/m 16,1 km/h (3 Bft) 97,87 %
10.10.2022 19:40 14,2 C 13,3 C 9,4 C 89 % 1020,1 hPa 0,0 l/m 0 min 0 min 0 W/m 16,1 km/h (3 Bft) 97,83 %
10.10.2022 19:42 14,1 C 12,8 C 9,4 C 89 % 1020,2 hPa 0,0 l/m 0 min 0 min 0 W/m 22,5 km/h (4 Bft) 97,87 %
10.10.2022 19:44 13,9 C 12,8 C 9,4 C 88 % 1020,4 hPa 0,0 l/m 0 min 0 min 0 W/m 35,4 km/h (5 Bft) 95,74 %
10.10.2022 19:46 13,8 C 12,8 C 9,4 C 88 % 1020,4 hPa 0,0 l/m 0 min 0 min 0 W/m 12,9 km/h (3 Bft) 95,74 %
10.10.2022 19:48 13,8 C 12,8 C 9,4 C 88 % 1020,4 hPa 0,0 l/m 0 min 0 min 0 W/m 16,1 km/h (3 Bft) 97,87 %
10.10.2022 19:50 13,7 C 12,8 C 9,4 C 88 % 1020,5 hPa 0,0 l/m 0 min 0 min 0 W/m 19,3 km/h (3 Bft) 95,74 %
10.10.2022 19:52 13,6 C 12,8 C 9,4 C 88 % 1020,6 hPa 0,0 l/m 0 min 0 min 0 W/m 25,7 km/h (4 Bft) 97,83 %
10.10.2022 19:54 13,6 C 12,8 C 9,4 C 88 % 1020,6 hPa 0,0 l/m 0 min 0 min 0 W/m 9,7 km/h (2 Bft) 95,74 %
10.10.2022 19:56 13,5 C 12,8 C 9,4 C 88 % 1020,6 hPa 0,0 l/m 0 min 0 min 0 W/m 16,1 km/h (3 Bft) 95,74 %
10.10.2022 19:58 13,4 C 12,8 C 9,4 C 87 % 1020,7 hPa 0,0 l/m 0 min 0 min 0 W/m 9,7 km/h (2 Bft) 97,87 %
10.10.2022 20:00 13,4 C 12,8 C 9,4 C 87 % 1020,7 hPa 0,0 l/m 0 min 0 min 0 W/m 12,9 km/h (3 Bft) 95,74 %
10.10.2022 20:02 13,4 C 12,8 C 9,4 C 87 % 1020,8 hPa 0,0 l/m 0 min 0 min 0 W/m 16,1 km/h (3 Bft) 97,87 %
10.10.2022 20:04 13,3 C 12,8 C 9,4 C 87 % 1020,8 hPa 0,0 l/m 0 min 0 min 0 W/m 19,3 km/h (3 Bft) 97,83 %
10.10.2022 20:06 13,3 C 12,8 C 8,9 C 87 % 1020,8 hPa 0,0 l/m 0 min 0 min 0 W/m 19,3 km/h (3 Bft) 97,87 %
10.10.2022 20:08 13,3 C 12,8 C 8,9 C 87 % 1020,8 hPa 0,0 l/m 0 min 0 min 0 W/m 19,3 km/h (3 Bft) 95,74 %
10.10.2022 20:10 13,3 C 12,8 C 8,9 C 87 % 1020,8 hPa 0,0 l/m 0 min 0 min 0 W/m 9,7 km/h (2 Bft) 95,74 %
10.10.2022 20:12 13,3 C 12,8 C 8,9 C 87 % 1020,8 hPa 0,0 l/m 0 min 0 min 0 W/m 9,7 km/h (2 Bft) 97,87 %
10.10.2022 20:14 13,2 C 12,8 C 8,9 C 87 % 1020,9 hPa 0,0 l/m 0 min 0 min 0 W/m 22,5 km/h (4 Bft) 95,74 %
10.10.2022 20:16 13,2 C 12,2 C 8,9 C 87 % 1020,9 hPa 0,0 l/m 0 min 0 min 0 W/m 12,9 km/h (3 Bft) 97,83 %
10.10.2022 20:18 13,2 C 12,2 C 8,9 C 87 % 1020,9 hPa 0,0 l/m 0 min 0 min 0 W/m 16,1 km/h (3 Bft) 97,87 %
10.10.2022 20:20 13,2 C 12,2 C 8,9 C 87 % 1021,0 hPa 0,0 l/m 0 min 0 min 0 W/m 19,3 km/h (3 Bft) 97,87 %
10.10.2022 20:22 13,2 C 12,2 C 8,9 C 87 % 1021,1 hPa 0,0 l/m 0 min 0 min 0 W/m 12,9 km/h (3 Bft) 97,87 %
10.10.2022 20:24 13,2 C 12,2 C 8,9 C 87 % 1021,1 hPa 0,0 l/m 0 min 0 min 0 W/m 6,4 km/h (2 Bft) 95,74 %
10.10.2022 20:26 13,2 C 12,2 C 8,9 C 87 % 1021,2 hPa 0,0 l/m 0 min 0 min 0 W/m 16,1 km/h (3 Bft) 95,74 %
10.10.2022 20:28 13,2 C 12,2 C 8,9 C 88 % 1021,2 hPa 0,0 l/m 0 min 0 min 0 W/m 16,1 km/h (3 Bft) 93,48 %
10.10.2022 20:30 13,2 C 12,8 C 8,9 C 88 % 1021,3 hPa 0,0 l/m 0 min 0 min 0 W/m 16,1 km/h (3 Bft) 97,87 %
10.10.2022 20:32 13,2 C 12,8 C 8,9 C 88 % 1021,3 hPa 0,0 l/m 0 min 0 min 0 W/m 12,9 km/h (3 Bft) 95,74 %
10.10.2022 20:34 13,2 C 12,8 C 8,9 C 88 % 1021,3 hPa 0,0 l/m 0 min 0 min 0 W/m 9,7 km/h (2 Bft) 97,87 %
10.10.2022 20:36 13,2 C 12,8 C 8,9 C 88 % 1021,4 hPa 0,0 l/m 0 min 0 min 0 W/m 12,9 km/h (3 Bft) 95,74 %
10.10.2022 20:38 13,2 C 12,8 C 8,9 C 88 % 1021,4 hPa 0,0 l/m 0 min 0 min 0 W/m 22,5 km/h (4 Bft) 97,87 %
10.10.2022 20:40 13,2 C 12,8 C 8,9 C 88 % 1021,4 hPa 0,0 l/m 0 min 0 min 0 W/m 12,9 km/h (3 Bft) 93,48 %
10.10.2022 20:42 13,2 C 12,8 C 8,9 C 88 % 1021,5 hPa 0,0 l/m 0 min 0 min 0 W/m 16,1 km/h (3 Bft) 97,87 %
10.10.2022 20:44 13,2 C 12,8 C 8,9 C 88 % 1021,5 hPa 0,0 l/m 0 min 0 min 0 W/m 12,9 km/h (3 Bft) 95,74 %
10.10.2022 20:46 13,2 C 12,8 C 8,9 C 88 % 1021,5 hPa 0,0 l/m 0 min 0 min 0 W/m 6,4 km/h (2 Bft) 93,62 %
10.10.2022 20:48 13,2 C 12,8 C 8,9 C 88 % 1021,5 hPa 0,0 l/m 0 min 0 min 0 W/m 6,4 km/h (2 Bft) 95,74 %
10.10.2022 20:50 13,3 C 12,8 C 8,9 C 88 % 1021,5 hPa 0,0 l/m 0 min 0 min 0 W/m 9,7 km/h (2 Bft) 95,74 %
10.10.2022 20:52 13,2 C 12,8 C 8,9 C 88 % 1021,6 hPa 0,0 l/m 0 min 0 min 0 W/m 9,7 km/h (2 Bft) 97,83 %
10.10.2022 20:54 13,2 C 12,8 C 8,9 C 88 % 1021,6 hPa 0,0 l/m 0 min 0 min 0 W/m 12,9 km/h (3 Bft) 93,62 %
10.10.2022 20:56 13,2 C 12,8 C 8,9 C 88 % 1021,6 hPa 0,0 l/m 0 min 0 min 0 W/m 9,7 km/h (2 Bft) 97,87 %
10.10.2022 20:58 13,2 C 12,8 C 8,9 C 88 % 1021,6 hPa 0,0 l/m 0 min 0 min 0 W/m 9,7 km/h (2 Bft) 54,35 %
10.10.2022 21:00 13,2 C 12,8 C 8,9 C 88 % 1021,7 hPa 0,0 l/m 0 min 0 min 0 W/m 16,1 km/h (3 Bft) 95,74 %
10.10.2022 21:02 13,2 C 12,8 C 8,9 C 88 % 1021,6 hPa 0,0 l/m 0 min 0 min 0 W/m 9,7 km/h (2 Bft) 97,87 %
10.10.2022 21:04 13,2 C 12,8 C 8,9 C 88 % 1021,7 hPa 0,0 l/m 0 min 0 min 0 W/m 16,1 km/h (3 Bft) 97,83 %
10.10.2022 21:06 13,1 C 12,8 C 8,9 C 88 % 1021,8 hPa 0,0 l/m 0 min 0 min 0 W/m 19,3 km/h (3 Bft) 97,87 %
10.10.2022 21:08 13,1 C 12,2 C 8,9 C 88 % 1021,7 hPa 0,0 l/m 0 min 0 min 0 W/m 12,9 km/h (3 Bft) 95,74 %
10.10.2022 21:10 13,1 C 12,2 C 8,9 C 88 % 1021,7 hPa 0,0 l/m 0 min 0 min 0 W/m 12,9 km/h (3 Bft) 95,74 %
10.10.2022 21:12 13,1 C 12,2 C 8,9 C 87 % 1021,7 hPa 0,0 l/m 0 min 0 min 0 W/m 6,4 km/h (2 Bft) 93,62 %
10.10.2022 21:14 13,1 C 12,2 C 8,9 C 87 % 1021,8 hPa 0,0 l/m 0 min 0 min 0 W/m 9,7 km/h (2 Bft) 93,62 %
10.10.2022 21:16 13,1 C 12,2 C 8,3 C 87 % 1021,8 hPa 0,0 l/m 0 min 0 min 0 W/m 6,4 km/h (2 Bft) 95,65 %
10.10.2022 21:18 13,0 C 12,2 C 8,3 C 87 % 1021,8 hPa 0,0 l/m 0 min 0 min 0 W/m 9,7 km/h (2 Bft) 97,87 %
10.10.2022 21:20 12,9 C 12,2 C 8,3 C 87 % 1021,9 hPa 0,0 l/m 0 min 0 min 0 W/m 12,9 km/h (3 Bft) 95,74 %
10.10.2022 21:22 12,9 C 11,7 C 8,3 C 87 % 1021,9 hPa 0,0 l/m 0 min 0 min 0 W/m 6,4 km/h (2 Bft) 95,74 %
10.10.2022 21:24 12,8 C 11,7 C 8,3 C 88 % 1021,9 hPa 0,0 l/m 0 min 0 min 0 W/m 3,2 km/h (1 Bft) 95,74 %
10.10.2022 21:26 12,8 C 11,7 C 8,3 C 88 % 1022,0 hPa 0,0 l/m 0 min 0 min 0 W/m 3,2 km/h (1 Bft) 95,74 %
10.10.2022 21:28 12,8 C 11,7 C 7,8 C 88 % 1022,1 hPa 0,0 l/m 0 min 0 min 0 W/m 6,4 km/h (2 Bft) 95,65 %
10.10.2022 21:30 12,7 C 11,7 C 7,8 C 88 % 1022,1 hPa 0,0 l/m 0 min 0 min 0 W/m 3,2 km/h (1 Bft) 97,87 %
10.10.2022 21:32 12,7 C 11,7 C 7,8 C 88 % 1022,1 hPa 0,0 l/m 0 min 0 min 0 W/m 3,2 km/h (1 Bft) 95,74 %
10.10.2022 21:34 12,7 C 11,7 C 7,8 C 88 % 1022,1 hPa 0,0 l/m 0 min 0 min 0 W/m 6,4 km/h (2 Bft) 97,87 %
10.10.2022 21:36 12,7 C 11,7 C 7,8 C 88 % 1022,2 hPa 0,0 l/m 0 min 0 min 0 W/m 3,2 km/h (1 Bft) 95,74 %
10.10.2022 21:38 12,6 C 11,1 C 7,8 C 88 % 1022,2 hPa 0,0 l/m 0 min 0 min 0 W/m 3,2 km/h (1 Bft) 93,62 %
10.10.2022 21:40 12,6 C 11,1 C 7,8 C 88 % 1022,3 hPa 0,0 l/m 0 min 0 min 0 W/m 3,2 km/h (1 Bft) 97,83 %
10.10.2022 21:42 12,5 C 11,1 C 7,8 C 88 % 1022,3 hPa 0,0 l/m 0 min 0 min 0 W/m 6,4 km/h (2 Bft) 97,87 %
10.10.2022 21:44 12,4 C 11,1 C 7,8 C 88 % 1022,3 hPa 0,0 l/m 0 min 0 min 0 W/m 3,2 km/h (1 Bft) 93,62 %
10.10.2022 21:46 12,4 C 11,1 C 7,8 C 88 % 1022,4 hPa 0,0 l/m 0 min 0 min 0 W/m 3,2 km/h (1 Bft) 100,00 %
10.10.2022 21:48 12,4 C 11,1 C 7,2 C 88 % 1022,4 hPa 0,0 l/m 0 min 0 min 0 W/m 0,0 km/h (0 Bft) 95,74 %
10.10.2022 21:50 12,3 C 10,6 C 7,2 C 88 % 1022,4 hPa 0,0 l/m 0 min 0 min 0 W/m 6,4 km/h (2 Bft) 97,87 %
10.10.2022 21:52 12,3 C 10,6 C 7,2 C 88 % 1022,5 hPa 0,0 l/m 0 min 0 min 0 W/m 3,2 km/h (1 Bft) 100,00 %
10.10.2022 21:54 12,2 C 10,6 C 7,2 C 88 % 1022,5 hPa 0,0 l/m 0 min 0 min 0 W/m 0,0 km/h (0 Bft) 100,00 %
10.10.2022 21:56 12,2 C 10,6 C 7,2 C 88 % 1022,5 hPa 0,0 l/m 0 min 0 min 0 W/m 3,2 km/h (1 Bft) 97,87 %
10.10.2022 21:58 12,2 C 10,6 C 7,2 C 88 % 1022,5 hPa 0,0 l/m 0 min 0 min 0 W/m 3,2 km/h (1 Bft) 100,00 %
10.10.2022 22:00 12,1 C 10,6 C 7,2 C 88 % 1022,5 hPa 0,0 l/m 0 min 0 min 0 W/m 0,0 km/h (0 Bft) 100,00 %
10.10.2022 22:02 12,1 C 10,6 C 7,2 C 88 % 1022,6 hPa 0,0 l/m 0 min 0 min 0 W/m 0,0 km/h (0 Bft) 97,87 %
10.10.2022 22:04 12,0 C 10,6 C 6,7 C 88 % 1022,6 hPa 0,0 l/m 0 min 0 min 0 W/m 0,0 km/h (0 Bft) 100,00 %
10.10.2022 22:06 11,9 C 10,0 C 6,7 C 88 % 1022,6 hPa 0,0 l/m 0 min 0 min 0 W/m 0,0 km/h (0 Bft) 100,00 %
10.10.2022 22:08 11,9 C 10,0 C 6,7 C 88 % 1022,6 hPa 0,0 l/m 0 min 0 min 0 W/m 0,0 km/h (0 Bft) 100,00 %
10.10.2022 22:10 11,9 C 10,0 C 6,7 C 88 % 1022,6 hPa 0,0 l/m 0 min 0 min 0 W/m 0,0 km/h (0 Bft) 100,00 %
10.10.2022 22:12 11,8 C 10,0 C 6,7 C 88 % 1022,7 hPa 0,0 l/m 0 min 0 min 0 W/m 0,0 km/h (0 Bft) 100,00 %
10.10.2022 22:14 11,8 C 10,0 C 6,7 C 89 % 1022,7 hPa 0,0 l/m 0 min 0 min 0 W/m 0,0 km/h (0 Bft) 100,00 %
10.10.2022 22:16 11,7 C 10,0 C 6,7 C 89 % 1022,8 hPa 0,0 l/m 0 min 0 min 0 W/m 0,0 km/h (0 Bft) 100,00 %
10.10.2022 22:18 11,7 C 9,4 C 6,1 C 89 % 1022,7 hPa 0,0 l/m 0 min 0 min 0 W/m 0,0 km/h (0 Bft) 100,00 %
10.10.2022 22:20 11,6 C 9,4 C 6,1 C 88 % 1022,8 hPa 0,0 l/m 0 min 0 min 0 W/m 0,0 km/h (0 Bft) 89,36 %
10.10.2022 22:22 11,6 C 9,4 C 6,1 C 88 % 1022,8 hPa 0,0 l/m 0 min 0 min 0 W/m 0,0 km/h (0 Bft) 95,65 %
10.10.2022 22:24 11,5 C 9,4 C 6,1 C 88 % 1022,9 hPa 0,0 l/m 0 min 0 min 0 W/m 0,0 km/h (0 Bft) 100,00 %
10.10.2022 22:26 11,4 C 9,4 C 6,1 C 88 % 1022,9 hPa 0,0 l/m 0 min 0 min 0 W/m 0,0 km/h (0 Bft) 100,00 %
10.10.2022 22:28 11,3 C 9,4 C 6,1 C 89 % 1022,9 hPa 0,0 l/m 0 min 0 min 0 W/m 0,0 km/h (0 Bft) 100,00 %
10.10.2022 22:30 11,3 C 9,4 C 6,1 C 89 % 1023,0 hPa 0,0 l/m 0 min 0 min 0 W/m 0,0 km/h (0 Bft) 100,00 %
10.10.2022 22:32 11,2 C 9,4 C 6,1 C 89 % 1023,0 hPa 0,0 l/m 0 min 0 min 0 W/m 0,0 km/h (0 Bft) 100,00 %
10.10.2022 22:34 11,2 C 9,4 C 6,1 C 89 % 1023,0 hPa 0,0 l/m 0 min 0 min 0 W/m 0,0 km/h (0 Bft) 97,83 %
10.10.2022 22:36 11,1 C 9,4 C 5,6 C 89 % 1023,1 hPa 0,0 l/m 0 min 0 min 0 W/m 0,0 km/h (0 Bft) 98,31 %
10.10.2022 22:38 11,1 C 9,4 C 5,6 C 89 % 1023,1 hPa 0,0 l/m 0 min 0 min 0 W/m 0,0 km/h (0 Bft) 97,14 %
10.10.2022 22:40 11,0 C 9,4 C 5,6 C 89 % 1023,2 hPa 0,0 l/m 0 min 0 min 0 W/m 0,0 km/h (0 Bft) 100,00 %
10.10.2022 22:42 10,9 C 9,4 C 5,6 C 89 % 1023,2 hPa 0,0 l/m 0 min 0 min 0 W/m 0,0 km/h (0 Bft) 97,87 %
10.10.2022 22:44 10,9 C 9,4 C 5,6 C 90 % 1023,2 hPa 0,0 l/m 0 min 0 min 0 W/m 0,0 km/h (0 Bft) 100,00 %
10.10.2022 22:46 10,8 C 8,9 C 5,6 C 90 % 1023,3 hPa 0,0 l/m 0 min 0 min 0 W/m 0,0 km/h (0 Bft) 100,00 %
10.10.2022 22:48 10,8 C 8,9 C 5,6 C 90 % 1023,3 hPa 0,0 l/m 0 min 0 min 0 W/m 0,0 km/h (0 Bft) 100,00 %
10.10.2022 22:50 10,7 C 8,9 C 5,6 C 90 % 1023,3 hPa 0,0 l/m 0 min 0 min 0 W/m 0,0 km/h (0 Bft) 100,00 %
10.10.2022 22:52 10,7 C 8,9 C 5,6 C 90 % 1023,3 hPa 0,0 l/m 0 min 0 min 0 W/m 0,0 km/h (0 Bft) 100,00 %
10.10.2022 22:54 10,6 C 8,9 C 5,6 C 90 % 1023,4 hPa 0,0 l/m 0 min 0 min 0 W/m 0,0 km/h (0 Bft) 97,87 %
10.10.2022 22:56 10,6 C 8,9 C 5,6 C 90 % 1023,4 hPa 0,0 l/m 0 min 0 min 0 W/m 0,0 km/h (0 Bft) 100,00 %
10.10.2022 22:58 10,6 C 8,9 C 5,6 C 90 % 1023,5 hPa 0,0 l/m 0 min 0 min 0 W/m 0,0 km/h (0 Bft) 100,00 %
10.10.2022 23:00 10,5 C 8,9 C 5,6 C 90 % 1023,5 hPa 0,0 l/m 0 min 0 min 0 W/m 0,0 km/h (0 Bft) 95,74 %
10.10.2022 23:02 10,4 C 8,9 C 5,6 C 90 % 1023,5 hPa 0,0 l/m 0 min 0 min 0 W/m 0,0 km/h (0 Bft) 95,74 %
10.10.2022 23:04 10,4 C 8,9 C 5,6 C 91 % 1023,5 hPa 0,0 l/m 0 min 0 min 0 W/m 0,0 km/h (0 Bft) 97,87 %
10.10.2022 23:06 10,4 C 8,9 C 5,6 C 90 % 1023,5 hPa 0,0 l/m 0 min 0 min 0 W/m 0,0 km/h (0 Bft) 100,00 %
10.10.2022 23:08 10,3 C 8,3 C 5,6 C 91 % 1023,5 hPa 0,0 l/m 0 min 0 min 0 W/m 0,0 km/h (0 Bft) 97,22 %
10.10.2022 23:10 10,3 C 8,3 C 5,6 C 91 % 1023,5 hPa 0,0 l/m 0 min 0 min 0 W/m 0,0 km/h (0 Bft) 97,83 %
10.10.2022 23:12 10,3 C 8,3 C 5,6 C 91 % 1023,5 hPa 0,0 l/m 0 min 0 min 0 W/m 0,0 km/h (0 Bft) 95,74 %
10.10.2022 23:14 10,2 C 8,3 C 5,0 C 91 % 1023,6 hPa 0,0 l/m 0 min 0 min 0 W/m 0,0 km/h (0 Bft) 95,74 %
10.10.2022 23:16 10,2 C 8,3 C 5,0 C 91 % 1023,6 hPa 0,0 l/m 0 min 0 min 0 W/m 0,0 km/h (0 Bft) 93,62 %
10.10.2022 23:18 10,1 C 8,3 C 5,0 C 91 % 1023,6 hPa 0,0 l/m 0 min 0 min 0 W/m 0,0 km/h (0 Bft) 95,74 %
10.10.2022 23:20 10,1 C 8,3 C 5,0 C 91 % 1023,6 hPa 0,0 l/m 0 min 0 min 0 W/m 0,0 km/h (0 Bft) 95,65 %
10.10.2022 23:22 10,0 C 8,3 C 5,0 C 91 % 1023,6 hPa 0,0 l/m 0 min 0 min 0 W/m 0,0 km/h (0 Bft) 91,49 %
10.10.2022 23:24 10,0 C 8,3 C 5,0 C 91 % 1023,6 hPa 0,0 l/m 0 min 0 min 0 W/m 0,0 km/h (0 Bft) 91,49 %
10.10.2022 23:26 9,9 C 8,3 C 5,0 C 91 % 1023,7 hPa 0,0 l/m 0 min 0 min 0 W/m 0,0 km/h (0 Bft) 89,36 %
10.10.2022 23:28 9,9 C 8,3 C 5,0 C 91 % 1023,8 hPa 0,0 l/m 0 min 0 min 0 W/m 0,0 km/h (0 Bft) 95,74 %
10.10.2022 23:30 9,8 C 8,3 C 5,0 C 91 % 1023,7 hPa 0,0 l/m 0 min 0 min 0 W/m 0,0 km/h (0 Bft) 95,74 %
10.10.2022 23:32 9,8 C 8,3 C 5,0 C 91 % 1023,7 hPa 0,0 l/m 0 min 0 min 0 W/m 0,0 km/h (0 Bft) 91,30 %
10.10.2022 23:34 9,8 C 8,3 C 5,0 C 92 % 1023,8 hPa 0,0 l/m 0 min 0 min 0 W/m 0,0 km/h (0 Bft) 95,74 %
10.10.2022 23:36 9,8 C 8,3 C 5,0 C 92 % 1023,8 hPa 0,0 l/m 0 min 0 min 0 W/m 0,0 km/h (0 Bft) 95,74 %
10.10.2022 23:38 9,7 C 8,3 C 5,0 C 92 % 1023,8 hPa 0,0 l/m 0 min 0 min 0 W/m 0,0 km/h (0 Bft) 93,62 %
10.10.2022 23:40 9,7 C 8,3 C 5,0 C 92 % 1023,8 hPa 0,0 l/m 0 min 0 min 0 W/m 0,0 km/h (0 Bft) 95,74 %
10.10.2022 23:42 9,7 C 8,3 C 5,0 C 92 % 1023,8 hPa 0,0 l/m 0 min 0 min 0 W/m 0,0 km/h (0 Bft) 93,62 %
10.10.2022 23:44 9,7 C 8,3 C 5,0 C 92 % 1023,8 hPa 0,0 l/m 0 min 0 min 0 W/m 0,0 km/h (0 Bft) 97,87 %
10.10.2022 23:46 9,6 C 8,3 C 5,0 C 92 % 1023,8 hPa 0,0 l/m 0 min 0 min 0 W/m 0,0 km/h (0 Bft) 95,65 %
10.10.2022 23:48 9,6 C 8,3 C 5,0 C 92 % 1023,9 hPa 0,0 l/m 0 min 0 min 0 W/m 0,0 km/h (0 Bft) 95,74 %
10.10.2022 23:50 9,6 C 8,3 C 5,0 C 92 % 1024,0 hPa 0,0 l/m 0 min 0 min 0 W/m 0,0 km/h (0 Bft) 97,87 %
10.10.2022 23:52 9,6 C 7,8 C 5,0 C 92 % 1023,9 hPa 0,0 l/m 0 min 0 min 0 W/m 0,0 km/h (0 Bft) 95,74 %
10.10.2022 23:54 9,5 C 7,8 C 5,0 C 92 % 1024,0 hPa 0,0 l/m 0 min 0 min 0 W/m 0,0 km/h (0 Bft) 97,87 %
10.10.2022 23:56 9,4 C 7,8 C 5,0 C 92 % 1024,0 hPa 0,0 l/m 0 min 0 min 0 W/m 0,0 km/h (0 Bft) 97,83 %
10.10.2022 23:58 9,4 C 7,8 C 5,0 C 92 % 1024,0 hPa 0,0 l/m 0 min 0 min 0 W/m 0,0 km/h (0 Bft) 95,74 %
_ Min-Zeit 07:44 07:36 06:58 14:52 06:46 - - - - 21:48 05:42
Minimum _ 7,7 C 6,7 C 3,9 C 72 % 1014,6 hPa - - - - 0,0 km/h (0 Bft) 47,37 %
_ Max-Zeit 15:26 11:18 11:46 08:34 23:50 00:00 12:08 16:42 14:42 19:44 00:02
Maximum _ 18,9 C 20,0 C 13,9 C 92 % 1024,0 hPa 0,0 l/m 4 min 2 min 648 W/m 35,4 km/h
W-NW (5 Bft)
100,00 %
Durchschnitt _ 12,3 C 11,8 C 8,1 C 84 % 1017,1 hPa #0,0 l/m #2:06 h #10 min. 136 W/m 9,8 km/h (2 Bft) 97,14 %
© 2022 W. Hausmann